<?xml version="1.0" encoding="UTF-8" standalone="no" ?>
<gpx xmlns="http://www.topografix.com/GPX/1/1" xmlns:xsi="http://www.w3.org/2001/XMLSchema-instance" xsi:schemaLocation="http://www.topografix.com/GPX/1/1 http://www.topografix.com/GPX/1/1/gpx.xsd" version="1.1" creator="VisuGPX - https://www.visugpx.com">
  <metadata>
    <name>sous le rachais</name>
    <desc><![CDATA[sous le rachais]]></desc>
  </metadata>
  <trk>
    <name><![CDATA[Sous le rachais]]></name>
    <trkseg>
      <trkpt lat="45.18746" lon="5.7337">
        <ele>216.19999694824</ele>
        <time>2013-11-27T10:34:42.000Z</time>
      </trkpt>
      <trkpt lat="45.18746" lon="5.7337">
        <ele>216.19999694824</ele>
        <time>2013-11-27T10:34:42.000Z</time>
      </trkpt>
      <trkpt lat="45.18766" lon="5.73388">
        <ele>215.60000610352</ele>
        <time>2013-11-27T10:34:48.000Z</time>
      </trkpt>
      <trkpt lat="45.18776" lon="5.73397">
        <ele>215.60000610352</ele>
        <time>2013-11-27T10:34:52.000Z</time>
      </trkpt>
      <trkpt lat="45.18792" lon="5.73372">
        <ele>215.80000305176</ele>
        <time>2013-11-27T10:34:56.000Z</time>
      </trkpt>
      <trkpt lat="45.18802" lon="5.73373">
        <ele>215.60000610352</ele>
        <time>2013-11-27T10:35:00.000Z</time>
      </trkpt>
      <trkpt lat="45.1881" lon="5.73385">
        <ele>215.60000610352</ele>
        <time>2013-11-27T10:35:04.000Z</time>
      </trkpt>
      <trkpt lat="45.18822" lon="5.73401">
        <ele>215.80000305176</ele>
        <time>2013-11-27T10:35:09.000Z</time>
      </trkpt>
      <trkpt lat="45.18835" lon="5.73436">
        <ele>216.19999694824</ele>
        <time>2013-11-27T10:35:15.000Z</time>
      </trkpt>
      <trkpt lat="45.18849" lon="5.73459">
        <ele>216.60000610352</ele>
        <time>2013-11-27T10:35:21.000Z</time>
      </trkpt>
      <trkpt lat="45.18867" lon="5.73435">
        <ele>216.60000610352</ele>
        <time>2013-11-27T10:35:24.000Z</time>
      </trkpt>
      <trkpt lat="45.18867" lon="5.73441">
        <ele>216.60000610352</ele>
        <time>2013-11-27T10:35:25.000Z</time>
      </trkpt>
      <trkpt lat="45.18881" lon="5.73462">
        <ele>217.19999694824</ele>
        <time>2013-11-27T10:35:31.000Z</time>
      </trkpt>
      <trkpt lat="45.18884" lon="5.73471">
        <ele>217.19999694824</ele>
        <time>2013-11-27T10:35:33.000Z</time>
      </trkpt>
      <trkpt lat="45.18899" lon="5.73479">
        <ele>217.60000610352</ele>
        <time>2013-11-27T10:35:39.000Z</time>
      </trkpt>
      <trkpt lat="45.18913" lon="5.73492">
        <ele>217.80000305176</ele>
        <time>2013-11-27T10:35:44.000Z</time>
      </trkpt>
      <trkpt lat="45.18922" lon="5.73509">
        <ele>217.80000305176</ele>
        <time>2013-11-27T10:35:48.000Z</time>
      </trkpt>
      <trkpt lat="45.18932" lon="5.7353">
        <ele>217.39999389648</ele>
        <time>2013-11-27T10:35:53.000Z</time>
      </trkpt>
      <trkpt lat="45.18936" lon="5.73539">
        <ele>217</ele>
        <time>2013-11-27T10:35:55.000Z</time>
      </trkpt>
      <trkpt lat="45.18938" lon="5.73559">
        <ele>216.60000610352</ele>
        <time>2013-11-27T10:35:57.000Z</time>
      </trkpt>
      <trkpt lat="45.18947" lon="5.73589">
        <ele>216</ele>
        <time>2013-11-27T10:36:02.000Z</time>
      </trkpt>
      <trkpt lat="45.18958" lon="5.73595">
        <ele>215.80000305176</ele>
        <time>2013-11-27T10:36:06.000Z</time>
      </trkpt>
      <trkpt lat="45.18968" lon="5.73603">
        <ele>215.60000610352</ele>
        <time>2013-11-27T10:36:10.000Z</time>
      </trkpt>
      <trkpt lat="45.1898" lon="5.73633">
        <ele>216.19999694824</ele>
        <time>2013-11-27T10:36:16.000Z</time>
      </trkpt>
      <trkpt lat="45.18989" lon="5.73646">
        <ele>216.39999389648</ele>
        <time>2013-11-27T10:36:19.000Z</time>
      </trkpt>
      <trkpt lat="45.19003" lon="5.73644">
        <ele>216.19999694824</ele>
        <time>2013-11-27T10:36:24.000Z</time>
      </trkpt>
      <trkpt lat="45.19009" lon="5.7365">
        <ele>216.39999389648</ele>
        <time>2013-11-27T10:36:28.000Z</time>
      </trkpt>
      <trkpt lat="45.19014" lon="5.73652">
        <ele>216.39999389648</ele>
        <time>2013-11-27T10:36:31.000Z</time>
      </trkpt>
      <trkpt lat="45.19033" lon="5.73641">
        <ele>216</ele>
        <time>2013-11-27T10:36:37.000Z</time>
      </trkpt>
      <trkpt lat="45.19051" lon="5.73622">
        <ele>215.39999389648</ele>
        <time>2013-11-27T10:36:42.000Z</time>
      </trkpt>
      <trkpt lat="45.19062" lon="5.73612">
        <ele>215</ele>
        <time>2013-11-27T10:36:45.000Z</time>
      </trkpt>
      <trkpt lat="45.19073" lon="5.73603">
        <ele>214.60000610352</ele>
        <time>2013-11-27T10:36:50.000Z</time>
      </trkpt>
      <trkpt lat="45.19079" lon="5.73577">
        <ele>214</ele>
        <time>2013-11-27T10:36:56.000Z</time>
      </trkpt>
      <trkpt lat="45.19096" lon="5.7357">
        <ele>214.19999694824</ele>
        <time>2013-11-27T10:37:00.000Z</time>
      </trkpt>
      <trkpt lat="45.19114" lon="5.73557">
        <ele>214.39999389648</ele>
        <time>2013-11-27T10:37:05.000Z</time>
      </trkpt>
      <trkpt lat="45.19121" lon="5.73553">
        <ele>214.39999389648</ele>
        <time>2013-11-27T10:37:07.000Z</time>
      </trkpt>
      <trkpt lat="45.1914" lon="5.7354">
        <ele>214.39999389648</ele>
        <time>2013-11-27T10:37:12.000Z</time>
      </trkpt>
      <trkpt lat="45.19145" lon="5.73532">
        <ele>214.19999694824</ele>
        <time>2013-11-27T10:37:14.000Z</time>
      </trkpt>
      <trkpt lat="45.19152" lon="5.7352">
        <ele>213.80000305176</ele>
        <time>2013-11-27T10:37:19.000Z</time>
      </trkpt>
      <trkpt lat="45.19167" lon="5.73509">
        <ele>213.39999389648</ele>
        <time>2013-11-27T10:37:24.000Z</time>
      </trkpt>
      <trkpt lat="45.19176" lon="5.73493">
        <ele>213.39999389648</ele>
        <time>2013-11-27T10:37:29.000Z</time>
      </trkpt>
      <trkpt lat="45.19197" lon="5.73484">
        <ele>214</ele>
        <time>2013-11-27T10:37:33.000Z</time>
      </trkpt>
      <trkpt lat="45.19217" lon="5.7349">
        <ele>214.19999694824</ele>
        <time>2013-11-27T10:37:38.000Z</time>
      </trkpt>
      <trkpt lat="45.19235" lon="5.73496">
        <ele>214.60000610352</ele>
        <time>2013-11-27T10:37:43.000Z</time>
      </trkpt>
      <trkpt lat="45.19254" lon="5.73503">
        <ele>215.39999389648</ele>
        <time>2013-11-27T10:37:49.000Z</time>
      </trkpt>
      <trkpt lat="45.19265" lon="5.73504">
        <ele>216.39999389648</ele>
        <time>2013-11-27T10:37:52.000Z</time>
      </trkpt>
      <trkpt lat="45.19284" lon="5.73519">
        <ele>218</ele>
        <time>2013-11-27T10:37:59.000Z</time>
      </trkpt>
      <trkpt lat="45.19296" lon="5.73525">
        <ele>218.80000305176</ele>
        <time>2013-11-27T10:38:03.000Z</time>
      </trkpt>
      <trkpt lat="45.19314" lon="5.73536">
        <ele>219.60000610352</ele>
        <time>2013-11-27T10:38:09.000Z</time>
      </trkpt>
      <trkpt lat="45.19322" lon="5.73554">
        <ele>219.19999694824</ele>
        <time>2013-11-27T10:38:13.000Z</time>
      </trkpt>
      <trkpt lat="45.19335" lon="5.73562">
        <ele>219.39999389648</ele>
        <time>2013-11-27T10:38:17.000Z</time>
      </trkpt>
      <trkpt lat="45.19352" lon="5.73569">
        <ele>219.80000305176</ele>
        <time>2013-11-27T10:38:22.000Z</time>
      </trkpt>
      <trkpt lat="45.19365" lon="5.73578">
        <ele>220.19999694824</ele>
        <time>2013-11-27T10:38:27.000Z</time>
      </trkpt>
      <trkpt lat="45.19375" lon="5.73581">
        <ele>220.60000610352</ele>
        <time>2013-11-27T10:38:31.000Z</time>
      </trkpt>
      <trkpt lat="45.19383" lon="5.73573">
        <ele>221.39999389648</ele>
        <time>2013-11-27T10:38:35.000Z</time>
      </trkpt>
      <trkpt lat="45.19391" lon="5.7356">
        <ele>222.19999694824</ele>
        <time>2013-11-27T10:38:40.000Z</time>
      </trkpt>
      <trkpt lat="45.19409" lon="5.73544">
        <ele>223.60000610352</ele>
        <time>2013-11-27T10:38:45.000Z</time>
      </trkpt>
      <trkpt lat="45.19423" lon="5.7354">
        <ele>223.80000305176</ele>
        <time>2013-11-27T10:38:51.000Z</time>
      </trkpt>
      <trkpt lat="45.19443" lon="5.73529">
        <ele>223.19999694824</ele>
        <time>2013-11-27T10:38:57.000Z</time>
      </trkpt>
      <trkpt lat="45.19457" lon="5.73522">
        <ele>222.60000610352</ele>
        <time>2013-11-27T10:39:01.000Z</time>
      </trkpt>
      <trkpt lat="45.19473" lon="5.73513">
        <ele>222</ele>
        <time>2013-11-27T10:39:05.000Z</time>
      </trkpt>
      <trkpt lat="45.1948" lon="5.73509">
        <ele>221.80000305176</ele>
        <time>2013-11-27T10:39:07.000Z</time>
      </trkpt>
      <trkpt lat="45.19493" lon="5.73497">
        <ele>221.19999694824</ele>
        <time>2013-11-27T10:39:10.000Z</time>
      </trkpt>
      <trkpt lat="45.19515" lon="5.73488">
        <ele>220</ele>
        <time>2013-11-27T10:39:16.000Z</time>
      </trkpt>
      <trkpt lat="45.19519" lon="5.73488">
        <ele>219.80000305176</ele>
        <time>2013-11-27T10:39:17.000Z</time>
      </trkpt>
      <trkpt lat="45.19533" lon="5.73478">
        <ele>219</ele>
        <time>2013-11-27T10:39:21.000Z</time>
      </trkpt>
      <trkpt lat="45.19552" lon="5.73486">
        <ele>219.19999694824</ele>
        <time>2013-11-27T10:39:27.000Z</time>
      </trkpt>
      <trkpt lat="45.19568" lon="5.73492">
        <ele>219</ele>
        <time>2013-11-27T10:39:32.000Z</time>
      </trkpt>
      <trkpt lat="45.19584" lon="5.73499">
        <ele>219</ele>
        <time>2013-11-27T10:39:36.000Z</time>
      </trkpt>
      <trkpt lat="45.19592" lon="5.73496">
        <ele>218.39999389648</ele>
        <time>2013-11-27T10:39:40.000Z</time>
      </trkpt>
      <trkpt lat="45.19601" lon="5.73479">
        <ele>217.60000610352</ele>
        <time>2013-11-27T10:39:46.000Z</time>
      </trkpt>
      <trkpt lat="45.19613" lon="5.73465">
        <ele>216.80000305176</ele>
        <time>2013-11-27T10:39:51.000Z</time>
      </trkpt>
      <trkpt lat="45.19632" lon="5.73451">
        <ele>216</ele>
        <time>2013-11-27T10:39:56.000Z</time>
      </trkpt>
      <trkpt lat="45.19647" lon="5.73443">
        <ele>215.39999389648</ele>
        <time>2013-11-27T10:40:01.000Z</time>
      </trkpt>
      <trkpt lat="45.19663" lon="5.73427">
        <ele>215</ele>
        <time>2013-11-27T10:40:06.000Z</time>
      </trkpt>
      <trkpt lat="45.19678" lon="5.7341">
        <ele>214.60000610352</ele>
        <time>2013-11-27T10:40:11.000Z</time>
      </trkpt>
      <trkpt lat="45.1969" lon="5.73399">
        <ele>213.60000610352</ele>
        <time>2013-11-27T10:40:15.000Z</time>
      </trkpt>
      <trkpt lat="45.19703" lon="5.73385">
        <ele>212.60000610352</ele>
        <time>2013-11-27T10:40:20.000Z</time>
      </trkpt>
      <trkpt lat="45.19711" lon="5.73365">
        <ele>210.80000305176</ele>
        <time>2013-11-27T10:40:25.000Z</time>
      </trkpt>
      <trkpt lat="45.19718" lon="5.73345">
        <ele>209</ele>
        <time>2013-11-27T10:40:30.000Z</time>
      </trkpt>
      <trkpt lat="45.19728" lon="5.7331">
        <ele>208.80000305176</ele>
        <time>2013-11-27T10:40:37.000Z</time>
      </trkpt>
      <trkpt lat="45.19736" lon="5.7328">
        <ele>210.19999694824</ele>
        <time>2013-11-27T10:40:43.000Z</time>
      </trkpt>
      <trkpt lat="45.19749" lon="5.73254">
        <ele>211.80000305176</ele>
        <time>2013-11-27T10:40:49.000Z</time>
      </trkpt>
      <trkpt lat="45.19765" lon="5.73255">
        <ele>212.60000610352</ele>
        <time>2013-11-27T10:40:53.000Z</time>
      </trkpt>
      <trkpt lat="45.1978" lon="5.7326">
        <ele>213</ele>
        <time>2013-11-27T10:40:57.000Z</time>
      </trkpt>
      <trkpt lat="45.19796" lon="5.7327">
        <ele>213.60000610352</ele>
        <time>2013-11-27T10:41:02.000Z</time>
      </trkpt>
      <trkpt lat="45.19816" lon="5.73278">
        <ele>214.39999389648</ele>
        <time>2013-11-27T10:41:08.000Z</time>
      </trkpt>
      <trkpt lat="45.19835" lon="5.73282">
        <ele>215.39999389648</ele>
        <time>2013-11-27T10:41:14.000Z</time>
      </trkpt>
      <trkpt lat="45.19848" lon="5.73292">
        <ele>216.60000610352</ele>
        <time>2013-11-27T10:41:19.000Z</time>
      </trkpt>
      <trkpt lat="45.19864" lon="5.73296">
        <ele>218</ele>
        <time>2013-11-27T10:41:24.000Z</time>
      </trkpt>
      <trkpt lat="45.19883" lon="5.73303">
        <ele>219.19999694824</ele>
        <time>2013-11-27T10:41:30.000Z</time>
      </trkpt>
      <trkpt lat="45.19903" lon="5.73303">
        <ele>221.19999694824</ele>
        <time>2013-11-27T10:41:35.000Z</time>
      </trkpt>
      <trkpt lat="45.19922" lon="5.73306">
        <ele>222.19999694824</ele>
        <time>2013-11-27T10:41:40.000Z</time>
      </trkpt>
      <trkpt lat="45.19934" lon="5.73317">
        <ele>220.80000305176</ele>
        <time>2013-11-27T10:41:45.000Z</time>
      </trkpt>
      <trkpt lat="45.19939" lon="5.73321">
        <ele>220.19999694824</ele>
        <time>2013-11-27T10:41:47.000Z</time>
      </trkpt>
      <trkpt lat="45.19952" lon="5.73335">
        <ele>217.80000305176</ele>
        <time>2013-11-27T10:41:52.000Z</time>
      </trkpt>
      <trkpt lat="45.19969" lon="5.73344">
        <ele>217.19999694824</ele>
        <time>2013-11-27T10:41:57.000Z</time>
      </trkpt>
      <trkpt lat="45.19986" lon="5.7335">
        <ele>216.80000305176</ele>
        <time>2013-11-27T10:42:02.000Z</time>
      </trkpt>
      <trkpt lat="45.20005" lon="5.73351">
        <ele>216.80000305176</ele>
        <time>2013-11-27T10:42:07.000Z</time>
      </trkpt>
      <trkpt lat="45.20022" lon="5.73354">
        <ele>217</ele>
        <time>2013-11-27T10:42:12.000Z</time>
      </trkpt>
      <trkpt lat="45.2004" lon="5.73359">
        <ele>217</ele>
        <time>2013-11-27T10:42:17.000Z</time>
      </trkpt>
      <trkpt lat="45.20055" lon="5.73368">
        <ele>216.60000610352</ele>
        <time>2013-11-27T10:42:22.000Z</time>
      </trkpt>
      <trkpt lat="45.20075" lon="5.73372">
        <ele>216.60000610352</ele>
        <time>2013-11-27T10:42:28.000Z</time>
      </trkpt>
      <trkpt lat="45.20088" lon="5.73377">
        <ele>216.60000610352</ele>
        <time>2013-11-27T10:42:32.000Z</time>
      </trkpt>
      <trkpt lat="45.20104" lon="5.73382">
        <ele>216.80000305176</ele>
        <time>2013-11-27T10:42:37.000Z</time>
      </trkpt>
      <trkpt lat="45.20126" lon="5.73391">
        <ele>216.80000305176</ele>
        <time>2013-11-27T10:42:43.000Z</time>
      </trkpt>
      <trkpt lat="45.20144" lon="5.73399">
        <ele>216.19999694824</ele>
        <time>2013-11-27T10:42:48.000Z</time>
      </trkpt>
      <trkpt lat="45.20159" lon="5.73404">
        <ele>216</ele>
        <time>2013-11-27T10:42:53.000Z</time>
      </trkpt>
      <trkpt lat="45.20178" lon="5.73406">
        <ele>217.19999694824</ele>
        <time>2013-11-27T10:42:59.000Z</time>
      </trkpt>
      <trkpt lat="45.20192" lon="5.73407">
        <ele>219</ele>
        <time>2013-11-27T10:43:04.000Z</time>
      </trkpt>
      <trkpt lat="45.202" lon="5.73417">
        <ele>218</ele>
        <time>2013-11-27T10:43:07.000Z</time>
      </trkpt>
      <trkpt lat="45.20215" lon="5.7343">
        <ele>219</ele>
        <time>2013-11-27T10:43:13.000Z</time>
      </trkpt>
      <trkpt lat="45.20224" lon="5.73444">
        <ele>219.39999389648</ele>
        <time>2013-11-27T10:43:16.000Z</time>
      </trkpt>
      <trkpt lat="45.20239" lon="5.73466">
        <ele>219.39999389648</ele>
        <time>2013-11-27T10:43:22.000Z</time>
      </trkpt>
      <trkpt lat="45.20254" lon="5.73489">
        <ele>219.39999389648</ele>
        <time>2013-11-27T10:43:28.000Z</time>
      </trkpt>
      <trkpt lat="45.20262" lon="5.73504">
        <ele>219.19999694824</ele>
        <time>2013-11-27T10:43:32.000Z</time>
      </trkpt>
      <trkpt lat="45.20269" lon="5.73525">
        <ele>219.19999694824</ele>
        <time>2013-11-27T10:43:38.000Z</time>
      </trkpt>
      <trkpt lat="45.2028" lon="5.73538">
        <ele>219.60000610352</ele>
        <time>2013-11-27T10:43:43.000Z</time>
      </trkpt>
      <trkpt lat="45.2029" lon="5.7355">
        <ele>220.19999694824</ele>
        <time>2013-11-27T10:43:48.000Z</time>
      </trkpt>
      <trkpt lat="45.20304" lon="5.73562">
        <ele>220.80000305176</ele>
        <time>2013-11-27T10:43:53.000Z</time>
      </trkpt>
      <trkpt lat="45.20316" lon="5.73577">
        <ele>221</ele>
        <time>2013-11-27T10:43:58.000Z</time>
      </trkpt>
      <trkpt lat="45.20329" lon="5.73597">
        <ele>221.60000610352</ele>
        <time>2013-11-27T10:44:04.000Z</time>
      </trkpt>
      <trkpt lat="45.20343" lon="5.73608">
        <ele>223.19999694824</ele>
        <time>2013-11-27T10:44:09.000Z</time>
      </trkpt>
      <trkpt lat="45.20358" lon="5.73626">
        <ele>224.39999389648</ele>
        <time>2013-11-27T10:44:15.000Z</time>
      </trkpt>
      <trkpt lat="45.2037" lon="5.73642">
        <ele>225</ele>
        <time>2013-11-27T10:44:20.000Z</time>
      </trkpt>
      <trkpt lat="45.20382" lon="5.73656">
        <ele>225.39999389648</ele>
        <time>2013-11-27T10:44:25.000Z</time>
      </trkpt>
      <trkpt lat="45.20393" lon="5.73672">
        <ele>225.39999389648</ele>
        <time>2013-11-27T10:44:30.000Z</time>
      </trkpt>
      <trkpt lat="45.20401" lon="5.73686">
        <ele>225.19999694824</ele>
        <time>2013-11-27T10:44:34.000Z</time>
      </trkpt>
      <trkpt lat="45.20414" lon="5.73705">
        <ele>224.60000610352</ele>
        <time>2013-11-27T10:44:40.000Z</time>
      </trkpt>
      <trkpt lat="45.20429" lon="5.73724">
        <ele>224.80000305176</ele>
        <time>2013-11-27T10:44:46.000Z</time>
      </trkpt>
      <trkpt lat="45.20441" lon="5.73739">
        <ele>225</ele>
        <time>2013-11-27T10:44:51.000Z</time>
      </trkpt>
      <trkpt lat="45.20455" lon="5.73754">
        <ele>225.80000305176</ele>
        <time>2013-11-27T10:44:57.000Z</time>
      </trkpt>
      <trkpt lat="45.20463" lon="5.73767">
        <ele>227</ele>
        <time>2013-11-27T10:45:01.000Z</time>
      </trkpt>
      <trkpt lat="45.20473" lon="5.73778">
        <ele>228.19999694824</ele>
        <time>2013-11-27T10:45:05.000Z</time>
      </trkpt>
      <trkpt lat="45.20483" lon="5.73794">
        <ele>229.60000610352</ele>
        <time>2013-11-27T10:45:10.000Z</time>
      </trkpt>
      <trkpt lat="45.20492" lon="5.73805">
        <ele>230.60000610352</ele>
        <time>2013-11-27T10:45:14.000Z</time>
      </trkpt>
      <trkpt lat="45.20507" lon="5.73824">
        <ele>232.60000610352</ele>
        <time>2013-11-27T10:45:21.000Z</time>
      </trkpt>
      <trkpt lat="45.20515" lon="5.73835">
        <ele>233.80000305176</ele>
        <time>2013-11-27T10:45:25.000Z</time>
      </trkpt>
      <trkpt lat="45.20528" lon="5.73847">
        <ele>235.39999389648</ele>
        <time>2013-11-27T10:45:31.000Z</time>
      </trkpt>
      <trkpt lat="45.20531" lon="5.73847">
        <ele>235.60000610352</ele>
        <time>2013-11-27T10:45:32.000Z</time>
      </trkpt>
      <trkpt lat="45.20535" lon="5.73845">
        <ele>236.19999694824</ele>
        <time>2013-11-27T10:45:34.000Z</time>
      </trkpt>
      <trkpt lat="45.20545" lon="5.73853">
        <ele>237.19999694824</ele>
        <time>2013-11-27T10:45:39.000Z</time>
      </trkpt>
      <trkpt lat="45.20555" lon="5.73866">
        <ele>238.19999694824</ele>
        <time>2013-11-27T10:45:46.000Z</time>
      </trkpt>
      <trkpt lat="45.20558" lon="5.7387">
        <ele>238.39999389648</ele>
        <time>2013-11-27T10:45:48.000Z</time>
      </trkpt>
      <trkpt lat="45.20565" lon="5.73875">
        <ele>239.19999694824</ele>
        <time>2013-11-27T10:45:53.000Z</time>
      </trkpt>
      <trkpt lat="45.20576" lon="5.73871">
        <ele>240.39999389648</ele>
        <time>2013-11-27T10:45:58.000Z</time>
      </trkpt>
      <trkpt lat="45.20586" lon="5.73867">
        <ele>241.80000305176</ele>
        <time>2013-11-27T10:46:03.000Z</time>
      </trkpt>
      <trkpt lat="45.20588" lon="5.73866">
        <ele>242.39999389648</ele>
        <time>2013-11-27T10:46:04.000Z</time>
      </trkpt>
      <trkpt lat="45.20603" lon="5.7386">
        <ele>245.80000305176</ele>
        <time>2013-11-27T10:46:12.000Z</time>
      </trkpt>
      <trkpt lat="45.20614" lon="5.73858">
        <ele>248.39999389648</ele>
        <time>2013-11-27T10:46:18.000Z</time>
      </trkpt>
      <trkpt lat="45.20626" lon="5.73853">
        <ele>251.60000610352</ele>
        <time>2013-11-27T10:46:25.000Z</time>
      </trkpt>
      <trkpt lat="45.20637" lon="5.73849">
        <ele>254.19999694824</ele>
        <time>2013-11-27T10:46:31.000Z</time>
      </trkpt>
      <trkpt lat="45.20647" lon="5.73844">
        <ele>256.79998779297</ele>
        <time>2013-11-27T10:46:38.000Z</time>
      </trkpt>
      <trkpt lat="45.20654" lon="5.73839">
        <ele>258.79998779297</ele>
        <time>2013-11-27T10:46:44.000Z</time>
      </trkpt>
      <trkpt lat="45.20663" lon="5.73833">
        <ele>261.20001220703</ele>
        <time>2013-11-27T10:46:51.000Z</time>
      </trkpt>
      <trkpt lat="45.20673" lon="5.7383">
        <ele>263.60000610352</ele>
        <time>2013-11-27T10:46:57.000Z</time>
      </trkpt>
      <trkpt lat="45.20683" lon="5.73826">
        <ele>266.20001220703</ele>
        <time>2013-11-27T10:47:03.000Z</time>
      </trkpt>
      <trkpt lat="45.20692" lon="5.73821">
        <ele>269</ele>
        <time>2013-11-27T10:47:09.000Z</time>
      </trkpt>
      <trkpt lat="45.20702" lon="5.73816">
        <ele>271.79998779297</ele>
        <time>2013-11-27T10:47:15.000Z</time>
      </trkpt>
      <trkpt lat="45.20711" lon="5.7381">
        <ele>274.79998779297</ele>
        <time>2013-11-27T10:47:22.000Z</time>
      </trkpt>
      <trkpt lat="45.20717" lon="5.73806">
        <ele>276.60000610352</ele>
        <time>2013-11-27T10:47:26.000Z</time>
      </trkpt>
      <trkpt lat="45.20723" lon="5.73801">
        <ele>278.79998779297</ele>
        <time>2013-11-27T10:47:31.000Z</time>
      </trkpt>
      <trkpt lat="45.20724" lon="5.738">
        <ele>279</ele>
        <time>2013-11-27T10:47:32.000Z</time>
      </trkpt>
      <trkpt lat="45.2073" lon="5.73789">
        <ele>282</ele>
        <time>2013-11-27T10:47:39.000Z</time>
      </trkpt>
      <trkpt lat="45.20736" lon="5.73784">
        <ele>284.39999389648</ele>
        <time>2013-11-27T10:47:44.000Z</time>
      </trkpt>
      <trkpt lat="45.2074" lon="5.7378">
        <ele>286.20001220703</ele>
        <time>2013-11-27T10:47:49.000Z</time>
      </trkpt>
      <trkpt lat="45.20746" lon="5.73773">
        <ele>288.79998779297</ele>
        <time>2013-11-27T10:47:55.000Z</time>
      </trkpt>
      <trkpt lat="45.20752" lon="5.73765">
        <ele>291.39999389648</ele>
        <time>2013-11-27T10:48:01.000Z</time>
      </trkpt>
      <trkpt lat="45.20754" lon="5.7376">
        <ele>292.60000610352</ele>
        <time>2013-11-27T10:48:05.000Z</time>
      </trkpt>
      <trkpt lat="45.20762" lon="5.73754">
        <ele>295.20001220703</ele>
        <time>2013-11-27T10:48:12.000Z</time>
      </trkpt>
      <trkpt lat="45.20766" lon="5.73751">
        <ele>296.39999389648</ele>
        <time>2013-11-27T10:48:15.000Z</time>
      </trkpt>
      <trkpt lat="45.20774" lon="5.73745">
        <ele>299</ele>
        <time>2013-11-27T10:48:22.000Z</time>
      </trkpt>
      <trkpt lat="45.20781" lon="5.73741">
        <ele>301</ele>
        <time>2013-11-27T10:48:29.000Z</time>
      </trkpt>
      <trkpt lat="45.20786" lon="5.73739">
        <ele>302.39999389648</ele>
        <time>2013-11-27T10:48:33.000Z</time>
      </trkpt>
      <trkpt lat="45.20789" lon="5.73737">
        <ele>303.20001220703</ele>
        <time>2013-11-27T10:48:36.000Z</time>
      </trkpt>
      <trkpt lat="45.20793" lon="5.73735">
        <ele>304.60000610352</ele>
        <time>2013-11-27T10:48:40.000Z</time>
      </trkpt>
      <trkpt lat="45.208" lon="5.7373">
        <ele>306.79998779297</ele>
        <time>2013-11-27T10:48:47.000Z</time>
      </trkpt>
      <trkpt lat="45.20808" lon="5.73728">
        <ele>309</ele>
        <time>2013-11-27T10:48:53.000Z</time>
      </trkpt>
      <trkpt lat="45.20812" lon="5.73726">
        <ele>310.20001220703</ele>
        <time>2013-11-27T10:48:57.000Z</time>
      </trkpt>
      <trkpt lat="45.20815" lon="5.73724">
        <ele>311.20001220703</ele>
        <time>2013-11-27T10:49:00.000Z</time>
      </trkpt>
      <trkpt lat="45.2082" lon="5.73729">
        <ele>311.79998779297</ele>
        <time>2013-11-27T10:49:05.000Z</time>
      </trkpt>
      <trkpt lat="45.20827" lon="5.73743">
        <ele>311.60000610352</ele>
        <time>2013-11-27T10:49:13.000Z</time>
      </trkpt>
      <trkpt lat="45.20832" lon="5.73742">
        <ele>312.79998779297</ele>
        <time>2013-11-27T10:49:17.000Z</time>
      </trkpt>
      <trkpt lat="45.20843" lon="5.73739">
        <ele>316.20001220703</ele>
        <time>2013-11-27T10:49:25.000Z</time>
      </trkpt>
      <trkpt lat="45.20844" lon="5.73738">
        <ele>316.60000610352</ele>
        <time>2013-11-27T10:49:26.000Z</time>
      </trkpt>
      <trkpt lat="45.20848" lon="5.7373">
        <ele>319</ele>
        <time>2013-11-27T10:49:32.000Z</time>
      </trkpt>
      <trkpt lat="45.20852" lon="5.73734">
        <ele>319.39999389648</ele>
        <time>2013-11-27T10:49:38.000Z</time>
      </trkpt>
      <trkpt lat="45.20854" lon="5.73732">
        <ele>320.39999389648</ele>
        <time>2013-11-27T10:49:42.000Z</time>
      </trkpt>
      <trkpt lat="45.20855" lon="5.7373">
        <ele>321</ele>
        <time>2013-11-27T10:49:44.000Z</time>
      </trkpt>
      <trkpt lat="45.20856" lon="5.73727">
        <ele>321.60000610352</ele>
        <time>2013-11-27T10:49:46.000Z</time>
      </trkpt>
      <trkpt lat="45.20862" lon="5.73722">
        <ele>324.20001220703</ele>
        <time>2013-11-27T10:49:52.000Z</time>
      </trkpt>
      <trkpt lat="45.20866" lon="5.73725">
        <ele>324.79998779297</ele>
        <time>2013-11-27T10:49:56.000Z</time>
      </trkpt>
      <trkpt lat="45.20873" lon="5.73729">
        <ele>326.20001220703</ele>
        <time>2013-11-27T10:50:02.000Z</time>
      </trkpt>
      <trkpt lat="45.20879" lon="5.73733">
        <ele>327.39999389648</ele>
        <time>2013-11-27T10:50:07.000Z</time>
      </trkpt>
      <trkpt lat="45.20884" lon="5.73736">
        <ele>328</ele>
        <time>2013-11-27T10:50:11.000Z</time>
      </trkpt>
      <trkpt lat="45.2089" lon="5.7373">
        <ele>330.79998779297</ele>
        <time>2013-11-27T10:50:17.000Z</time>
      </trkpt>
      <trkpt lat="45.20895" lon="5.73727">
        <ele>332.79998779297</ele>
        <time>2013-11-27T10:50:22.000Z</time>
      </trkpt>
      <trkpt lat="45.209" lon="5.73723">
        <ele>335.20001220703</ele>
        <time>2013-11-27T10:50:28.000Z</time>
      </trkpt>
      <trkpt lat="45.20907" lon="5.73719">
        <ele>338</ele>
        <time>2013-11-27T10:50:36.000Z</time>
      </trkpt>
      <trkpt lat="45.20914" lon="5.73716">
        <ele>340.60000610352</ele>
        <time>2013-11-27T10:50:43.000Z</time>
      </trkpt>
      <trkpt lat="45.20919" lon="5.73714">
        <ele>342.39999389648</ele>
        <time>2013-11-27T10:50:49.000Z</time>
      </trkpt>
      <trkpt lat="45.20923" lon="5.73713">
        <ele>344</ele>
        <time>2013-11-27T10:50:53.000Z</time>
      </trkpt>
      <trkpt lat="45.20927" lon="5.73713">
        <ele>345.20001220703</ele>
        <time>2013-11-27T10:50:57.000Z</time>
      </trkpt>
      <trkpt lat="45.20931" lon="5.7371">
        <ele>346.79998779297</ele>
        <time>2013-11-27T10:51:00.000Z</time>
      </trkpt>
      <trkpt lat="45.20936" lon="5.73709">
        <ele>348.79998779297</ele>
        <time>2013-11-27T10:51:06.000Z</time>
      </trkpt>
      <trkpt lat="45.20943" lon="5.73709">
        <ele>351</ele>
        <time>2013-11-27T10:51:14.000Z</time>
      </trkpt>
      <trkpt lat="45.20946" lon="5.73708">
        <ele>352.20001220703</ele>
        <time>2013-11-27T10:51:16.000Z</time>
      </trkpt>
      <trkpt lat="45.20949" lon="5.73705">
        <ele>353.60000610352</ele>
        <time>2013-11-27T10:51:19.000Z</time>
      </trkpt>
      <trkpt lat="45.20954" lon="5.73702">
        <ele>355.79998779297</ele>
        <time>2013-11-27T10:51:24.000Z</time>
      </trkpt>
      <trkpt lat="45.20958" lon="5.737">
        <ele>357.39999389648</ele>
        <time>2013-11-27T10:51:27.000Z</time>
      </trkpt>
      <trkpt lat="45.20962" lon="5.73698">
        <ele>359</ele>
        <time>2013-11-27T10:51:32.000Z</time>
      </trkpt>
      <trkpt lat="45.20966" lon="5.73694">
        <ele>360.79998779297</ele>
        <time>2013-11-27T10:51:35.000Z</time>
      </trkpt>
      <trkpt lat="45.20969" lon="5.73691">
        <ele>362.39999389648</ele>
        <time>2013-11-27T10:51:40.000Z</time>
      </trkpt>
      <trkpt lat="45.20976" lon="5.73686">
        <ele>365.20001220703</ele>
        <time>2013-11-27T10:51:49.000Z</time>
      </trkpt>
      <trkpt lat="45.2098" lon="5.7368">
        <ele>367.79998779297</ele>
        <time>2013-11-27T10:51:56.000Z</time>
      </trkpt>
      <trkpt lat="45.20981" lon="5.73678">
        <ele>368.60000610352</ele>
        <time>2013-11-27T10:51:59.000Z</time>
      </trkpt>
      <trkpt lat="45.20989" lon="5.73669">
        <ele>372.60000610352</ele>
        <time>2013-11-27T10:52:08.000Z</time>
      </trkpt>
      <trkpt lat="45.20993" lon="5.73663">
        <ele>374.79998779297</ele>
        <time>2013-11-27T10:52:13.000Z</time>
      </trkpt>
      <trkpt lat="45.20998" lon="5.73654">
        <ele>378.20001220703</ele>
        <time>2013-11-27T10:52:21.000Z</time>
      </trkpt>
      <trkpt lat="45.20998" lon="5.73652">
        <ele>378.60000610352</ele>
        <time>2013-11-27T10:52:23.000Z</time>
      </trkpt>
      <trkpt lat="45.21" lon="5.73648">
        <ele>379.79998779297</ele>
        <time>2013-11-27T10:52:27.000Z</time>
      </trkpt>
      <trkpt lat="45.21002" lon="5.7364">
        <ele>382.20001220703</ele>
        <time>2013-11-27T10:52:34.000Z</time>
      </trkpt>
      <trkpt lat="45.21003" lon="5.73633">
        <ele>384.60000610352</ele>
        <time>2013-11-27T10:52:40.000Z</time>
      </trkpt>
      <trkpt lat="45.21004" lon="5.73632">
        <ele>385</ele>
        <time>2013-11-27T10:52:41.000Z</time>
      </trkpt>
      <trkpt lat="45.21006" lon="5.73624">
        <ele>387.60000610352</ele>
        <time>2013-11-27T10:52:47.000Z</time>
      </trkpt>
      <trkpt lat="45.21008" lon="5.73616">
        <ele>390.20001220703</ele>
        <time>2013-11-27T10:52:55.000Z</time>
      </trkpt>
      <trkpt lat="45.2101" lon="5.7361">
        <ele>392</ele>
        <time>2013-11-27T10:53:00.000Z</time>
      </trkpt>
      <trkpt lat="45.21011" lon="5.73602">
        <ele>394.20001220703</ele>
        <time>2013-11-27T10:53:07.000Z</time>
      </trkpt>
      <trkpt lat="45.21011" lon="5.73598">
        <ele>395.39999389648</ele>
        <time>2013-11-27T10:53:11.000Z</time>
      </trkpt>
      <trkpt lat="45.21012" lon="5.73596">
        <ele>396.20001220703</ele>
        <time>2013-11-27T10:53:13.000Z</time>
      </trkpt>
      <trkpt lat="45.21013" lon="5.73589">
        <ele>398.20001220703</ele>
        <time>2013-11-27T10:53:19.000Z</time>
      </trkpt>
      <trkpt lat="45.21013" lon="5.73587">
        <ele>398.79998779297</ele>
        <time>2013-11-27T10:53:21.000Z</time>
      </trkpt>
      <trkpt lat="45.21016" lon="5.7358">
        <ele>402</ele>
        <time>2013-11-27T10:53:28.000Z</time>
      </trkpt>
      <trkpt lat="45.21016" lon="5.73577">
        <ele>403.20001220703</ele>
        <time>2013-11-27T10:53:31.000Z</time>
      </trkpt>
      <trkpt lat="45.21018" lon="5.73571">
        <ele>406.39999389648</ele>
        <time>2013-11-27T10:53:36.000Z</time>
      </trkpt>
      <trkpt lat="45.21019" lon="5.73562">
        <ele>409.60000610352</ele>
        <time>2013-11-27T10:53:42.000Z</time>
      </trkpt>
      <trkpt lat="45.2102" lon="5.73558">
        <ele>411.20001220703</ele>
        <time>2013-11-27T10:53:46.000Z</time>
      </trkpt>
      <trkpt lat="45.2102" lon="5.73552">
        <ele>413.79998779297</ele>
        <time>2013-11-27T10:53:51.000Z</time>
      </trkpt>
      <trkpt lat="45.21021" lon="5.73548">
        <ele>415.60000610352</ele>
        <time>2013-11-27T10:53:55.000Z</time>
      </trkpt>
      <trkpt lat="45.21024" lon="5.73541">
        <ele>419.20001220703</ele>
        <time>2013-11-27T10:54:02.000Z</time>
      </trkpt>
      <trkpt lat="45.21025" lon="5.7354">
        <ele>420</ele>
        <time>2013-11-27T10:54:04.000Z</time>
      </trkpt>
      <trkpt lat="45.21027" lon="5.73537">
        <ele>421.79998779297</ele>
        <time>2013-11-27T10:54:08.000Z</time>
      </trkpt>
      <trkpt lat="45.21029" lon="5.73528">
        <ele>426</ele>
        <time>2013-11-27T10:54:15.000Z</time>
      </trkpt>
      <trkpt lat="45.2103" lon="5.73524">
        <ele>427.60000610352</ele>
        <time>2013-11-27T10:54:18.000Z</time>
      </trkpt>
      <trkpt lat="45.2103" lon="5.73518">
        <ele>429.39999389648</ele>
        <time>2013-11-27T10:54:23.000Z</time>
      </trkpt>
      <trkpt lat="45.2103" lon="5.73514">
        <ele>431</ele>
        <time>2013-11-27T10:54:26.000Z</time>
      </trkpt>
      <trkpt lat="45.2103" lon="5.73508">
        <ele>433</ele>
        <time>2013-11-27T10:54:32.000Z</time>
      </trkpt>
      <trkpt lat="45.21029" lon="5.73503">
        <ele>434.60000610352</ele>
        <time>2013-11-27T10:54:36.000Z</time>
      </trkpt>
      <trkpt lat="45.21026" lon="5.73495">
        <ele>436.60000610352</ele>
        <time>2013-11-27T10:54:41.000Z</time>
      </trkpt>
      <trkpt lat="45.21026" lon="5.73493">
        <ele>437.79998779297</ele>
        <time>2013-11-27T10:54:44.000Z</time>
      </trkpt>
      <trkpt lat="45.21025" lon="5.73489">
        <ele>439.20001220703</ele>
        <time>2013-11-27T10:54:47.000Z</time>
      </trkpt>
      <trkpt lat="45.21024" lon="5.73479">
        <ele>443.20001220703</ele>
        <time>2013-11-27T10:54:54.000Z</time>
      </trkpt>
      <trkpt lat="45.21024" lon="5.73476">
        <ele>444.60000610352</ele>
        <time>2013-11-27T10:54:56.000Z</time>
      </trkpt>
      <trkpt lat="45.21023" lon="5.73474">
        <ele>445.60000610352</ele>
        <time>2013-11-27T10:55:00.000Z</time>
      </trkpt>
      <trkpt lat="45.21022" lon="5.73472">
        <ele>446</ele>
        <time>2013-11-27T10:55:06.000Z</time>
      </trkpt>
      <trkpt lat="45.21021" lon="5.73467">
        <ele>447.79998779297</ele>
        <time>2013-11-27T10:55:09.000Z</time>
      </trkpt>
      <trkpt lat="45.2102" lon="5.73462">
        <ele>450</ele>
        <time>2013-11-27T10:55:15.000Z</time>
      </trkpt>
      <trkpt lat="45.21018" lon="5.73459">
        <ele>449.79998779297</ele>
        <time>2013-11-27T10:55:19.000Z</time>
      </trkpt>
      <trkpt lat="45.21014" lon="5.7346">
        <ele>448</ele>
        <time>2013-11-27T10:55:24.000Z</time>
      </trkpt>
      <trkpt lat="45.21009" lon="5.73454">
        <ele>448.79998779297</ele>
        <time>2013-11-27T10:55:30.000Z</time>
      </trkpt>
      <trkpt lat="45.21006" lon="5.73452">
        <ele>448.20001220703</ele>
        <time>2013-11-27T10:55:35.000Z</time>
      </trkpt>
      <trkpt lat="45.21" lon="5.73448">
        <ele>447.39999389648</ele>
        <time>2013-11-27T10:55:40.000Z</time>
      </trkpt>
      <trkpt lat="45.20992" lon="5.73446">
        <ele>446.39999389648</ele>
        <time>2013-11-27T10:55:47.000Z</time>
      </trkpt>
      <trkpt lat="45.20986" lon="5.73441">
        <ele>446.79998779297</ele>
        <time>2013-11-27T10:55:53.000Z</time>
      </trkpt>
      <trkpt lat="45.20983" lon="5.73439">
        <ele>447</ele>
        <time>2013-11-27T10:55:56.000Z</time>
      </trkpt>
      <trkpt lat="45.20977" lon="5.73435">
        <ele>447.39999389648</ele>
        <time>2013-11-27T10:56:03.000Z</time>
      </trkpt>
      <trkpt lat="45.20976" lon="5.73435">
        <ele>447.20001220703</ele>
        <time>2013-11-27T10:56:04.000Z</time>
      </trkpt>
      <trkpt lat="45.20975" lon="5.73432">
        <ele>448.20001220703</ele>
        <time>2013-11-27T10:56:07.000Z</time>
      </trkpt>
      <trkpt lat="45.20971" lon="5.73426">
        <ele>450</ele>
        <time>2013-11-27T10:56:13.000Z</time>
      </trkpt>
      <trkpt lat="45.20967" lon="5.7342">
        <ele>452.20001220703</ele>
        <time>2013-11-27T10:56:20.000Z</time>
      </trkpt>
      <trkpt lat="45.20964" lon="5.73415">
        <ele>454.20001220703</ele>
        <time>2013-11-27T10:56:27.000Z</time>
      </trkpt>
      <trkpt lat="45.20964" lon="5.73412">
        <ele>456.39999389648</ele>
        <time>2013-11-27T10:56:31.000Z</time>
      </trkpt>
      <trkpt lat="45.20965" lon="5.73408">
        <ele>458.79998779297</ele>
        <time>2013-11-27T10:56:35.000Z</time>
      </trkpt>
      <trkpt lat="45.20962" lon="5.73405">
        <ele>460.20001220703</ele>
        <time>2013-11-27T10:56:39.000Z</time>
      </trkpt>
      <trkpt lat="45.2096" lon="5.73401">
        <ele>462.39999389648</ele>
        <time>2013-11-27T10:56:42.000Z</time>
      </trkpt>
      <trkpt lat="45.20949" lon="5.73397">
        <ele>461.79998779297</ele>
        <time>2013-11-27T10:56:48.000Z</time>
      </trkpt>
      <trkpt lat="45.20937" lon="5.73393">
        <ele>462</ele>
        <time>2013-11-27T10:56:53.000Z</time>
      </trkpt>
      <trkpt lat="45.20932" lon="5.73388">
        <ele>464</ele>
        <time>2013-11-27T10:56:59.000Z</time>
      </trkpt>
      <trkpt lat="45.20931" lon="5.73387">
        <ele>464.39999389648</ele>
        <time>2013-11-27T10:57:00.000Z</time>
      </trkpt>
      <trkpt lat="45.20927" lon="5.73382">
        <ele>467</ele>
        <time>2013-11-27T10:57:06.000Z</time>
      </trkpt>
      <trkpt lat="45.20923" lon="5.73377">
        <ele>469.60000610352</ele>
        <time>2013-11-27T10:57:12.000Z</time>
      </trkpt>
      <trkpt lat="45.20923" lon="5.73374">
        <ele>471.39999389648</ele>
        <time>2013-11-27T10:57:16.000Z</time>
      </trkpt>
      <trkpt lat="45.20921" lon="5.73366">
        <ele>476.20001220703</ele>
        <time>2013-11-27T10:57:23.000Z</time>
      </trkpt>
      <trkpt lat="45.2092" lon="5.73365">
        <ele>476.79998779297</ele>
        <time>2013-11-27T10:57:24.000Z</time>
      </trkpt>
      <trkpt lat="45.20917" lon="5.73361">
        <ele>478.39999389648</ele>
        <time>2013-11-27T10:57:28.000Z</time>
      </trkpt>
      <trkpt lat="45.20916" lon="5.7336">
        <ele>478.79998779297</ele>
        <time>2013-11-27T10:57:30.000Z</time>
      </trkpt>
      <trkpt lat="45.20916" lon="5.7336">
        <ele>478.79998779297</ele>
        <time>2013-11-27T10:57:30.000Z</time>
      </trkpt>
      <trkpt lat="45.20913" lon="5.7336">
        <ele>478</ele>
        <time>2013-11-27T10:57:42.000Z</time>
      </trkpt>
      <trkpt lat="45.20909" lon="5.73357">
        <ele>478.79998779297</ele>
        <time>2013-11-27T10:57:46.000Z</time>
      </trkpt>
      <trkpt lat="45.20905" lon="5.73355">
        <ele>478.79998779297</ele>
        <time>2013-11-27T10:57:50.000Z</time>
      </trkpt>
      <trkpt lat="45.20903" lon="5.73353">
        <ele>479.79998779297</ele>
        <time>2013-11-27T10:57:53.000Z</time>
      </trkpt>
      <trkpt lat="45.20896" lon="5.73351">
        <ele>479.20001220703</ele>
        <time>2013-11-27T10:58:01.000Z</time>
      </trkpt>
      <trkpt lat="45.20892" lon="5.73348">
        <ele>479.79998779297</ele>
        <time>2013-11-27T10:58:06.000Z</time>
      </trkpt>
      <trkpt lat="45.20887" lon="5.73343">
        <ele>481.60000610352</ele>
        <time>2013-11-27T10:58:11.000Z</time>
      </trkpt>
      <trkpt lat="45.20886" lon="5.73344">
        <ele>481.20001220703</ele>
        <time>2013-11-27T10:58:12.000Z</time>
      </trkpt>
      <trkpt lat="45.20878" lon="5.73342">
        <ele>479.79998779297</ele>
        <time>2013-11-27T10:58:20.000Z</time>
      </trkpt>
      <trkpt lat="45.20876" lon="5.73341">
        <ele>480.20001220703</ele>
        <time>2013-11-27T10:58:22.000Z</time>
      </trkpt>
      <trkpt lat="45.20875" lon="5.7334">
        <ele>480.39999389648</ele>
        <time>2013-11-27T10:58:24.000Z</time>
      </trkpt>
      <trkpt lat="45.20871" lon="5.73337">
        <ele>480.79998779297</ele>
        <time>2013-11-27T10:58:28.000Z</time>
      </trkpt>
      <trkpt lat="45.20866" lon="5.73331">
        <ele>482.79998779297</ele>
        <time>2013-11-27T10:58:36.000Z</time>
      </trkpt>
      <trkpt lat="45.20866" lon="5.73323">
        <ele>486.20001220703</ele>
        <time>2013-11-27T10:58:42.000Z</time>
      </trkpt>
      <trkpt lat="45.20864" lon="5.73316">
        <ele>488.39999389648</ele>
        <time>2013-11-27T10:58:47.000Z</time>
      </trkpt>
      <trkpt lat="45.20864" lon="5.73311">
        <ele>490.79998779297</ele>
        <time>2013-11-27T10:58:51.000Z</time>
      </trkpt>
      <trkpt lat="45.20864" lon="5.73309">
        <ele>491.60000610352</ele>
        <time>2013-11-27T10:59:05.000Z</time>
      </trkpt>
      <trkpt lat="45.20868" lon="5.73314">
        <ele>490.79998779297</ele>
        <time>2013-11-27T10:59:09.000Z</time>
      </trkpt>
      <trkpt lat="45.20877" lon="5.73319">
        <ele>491.60000610352</ele>
        <time>2013-11-27T10:59:16.000Z</time>
      </trkpt>
      <trkpt lat="45.20884" lon="5.73316">
        <ele>495.39999389648</ele>
        <time>2013-11-27T10:59:21.000Z</time>
      </trkpt>
      <trkpt lat="45.20892" lon="5.73314">
        <ele>499.20001220703</ele>
        <time>2013-11-27T10:59:26.000Z</time>
      </trkpt>
      <trkpt lat="45.20895" lon="5.73314">
        <ele>500</ele>
        <time>2013-11-27T10:59:28.000Z</time>
      </trkpt>
      <trkpt lat="45.20905" lon="5.73313">
        <ele>504.20001220703</ele>
        <time>2013-11-27T10:59:35.000Z</time>
      </trkpt>
      <trkpt lat="45.20914" lon="5.73309">
        <ele>509.60000610352</ele>
        <time>2013-11-27T10:59:41.000Z</time>
      </trkpt>
      <trkpt lat="45.20917" lon="5.73308">
        <ele>511</ele>
        <time>2013-11-27T10:59:43.000Z</time>
      </trkpt>
      <trkpt lat="45.20925" lon="5.73309">
        <ele>512.20001220703</ele>
        <time>2013-11-27T10:59:47.000Z</time>
      </trkpt>
      <trkpt lat="45.20938" lon="5.73313">
        <ele>513.40002441406</ele>
        <time>2013-11-27T10:59:55.000Z</time>
      </trkpt>
      <trkpt lat="45.20946" lon="5.73317">
        <ele>513.20001220703</ele>
        <time>2013-11-27T11:00:00.000Z</time>
      </trkpt>
      <trkpt lat="45.20953" lon="5.73315">
        <ele>516</ele>
        <time>2013-11-27T11:00:04.000Z</time>
      </trkpt>
      <trkpt lat="45.20961" lon="5.73309">
        <ele>521.20001220703</ele>
        <time>2013-11-27T11:00:10.000Z</time>
      </trkpt>
      <trkpt lat="45.2097" lon="5.73304">
        <ele>527</ele>
        <time>2013-11-27T11:00:16.000Z</time>
      </trkpt>
      <trkpt lat="45.20977" lon="5.73302">
        <ele>529.59997558594</ele>
        <time>2013-11-27T11:00:21.000Z</time>
      </trkpt>
      <trkpt lat="45.20983" lon="5.73303">
        <ele>531</ele>
        <time>2013-11-27T11:00:26.000Z</time>
      </trkpt>
      <trkpt lat="45.20991" lon="5.73302">
        <ele>533.20001220703</ele>
        <time>2013-11-27T11:00:31.000Z</time>
      </trkpt>
      <trkpt lat="45.20988" lon="5.73301">
        <ele>533.20001220703</ele>
        <time>2013-11-27T11:00:36.000Z</time>
      </trkpt>
      <trkpt lat="45.20982" lon="5.73297">
        <ele>534.20001220703</ele>
        <time>2013-11-27T11:00:41.000Z</time>
      </trkpt>
      <trkpt lat="45.20975" lon="5.73294">
        <ele>534.20001220703</ele>
        <time>2013-11-27T11:00:46.000Z</time>
      </trkpt>
      <trkpt lat="45.20974" lon="5.73294">
        <ele>534.20001220703</ele>
        <time>2013-11-27T11:00:47.000Z</time>
      </trkpt>
      <trkpt lat="45.20965" lon="5.73291">
        <ele>533.79998779297</ele>
        <time>2013-11-27T11:00:53.000Z</time>
      </trkpt>
      <trkpt lat="45.20957" lon="5.73293">
        <ele>530.20001220703</ele>
        <time>2013-11-27T11:00:59.000Z</time>
      </trkpt>
      <trkpt lat="45.20948" lon="5.7329">
        <ele>529.79998779297</ele>
        <time>2013-11-27T11:01:05.000Z</time>
      </trkpt>
      <trkpt lat="45.20941" lon="5.73282">
        <ele>532.40002441406</ele>
        <time>2013-11-27T11:01:11.000Z</time>
      </trkpt>
      <trkpt lat="45.20933" lon="5.73275">
        <ele>533.79998779297</ele>
        <time>2013-11-27T11:01:17.000Z</time>
      </trkpt>
      <trkpt lat="45.20921" lon="5.73269">
        <ele>533.59997558594</ele>
        <time>2013-11-27T11:01:25.000Z</time>
      </trkpt>
      <trkpt lat="45.20915" lon="5.73266">
        <ele>533.59997558594</ele>
        <time>2013-11-27T11:01:29.000Z</time>
      </trkpt>
      <trkpt lat="45.20917" lon="5.73263">
        <ele>536</ele>
        <time>2013-11-27T11:01:34.000Z</time>
      </trkpt>
      <trkpt lat="45.20919" lon="5.73263">
        <ele>536.79998779297</ele>
        <time>2013-11-27T11:01:36.000Z</time>
      </trkpt>
      <trkpt lat="45.20931" lon="5.73264">
        <ele>539.79998779297</ele>
        <time>2013-11-27T11:01:44.000Z</time>
      </trkpt>
      <trkpt lat="45.2094" lon="5.73265">
        <ele>542</ele>
        <time>2013-11-27T11:01:50.000Z</time>
      </trkpt>
      <trkpt lat="45.20951" lon="5.73267">
        <ele>543.79998779297</ele>
        <time>2013-11-27T11:01:58.000Z</time>
      </trkpt>
      <trkpt lat="45.20956" lon="5.73265">
        <ele>546.79998779297</ele>
        <time>2013-11-27T11:02:02.000Z</time>
      </trkpt>
      <trkpt lat="45.2096" lon="5.73265">
        <ele>548.20001220703</ele>
        <time>2013-11-27T11:02:06.000Z</time>
      </trkpt>
      <trkpt lat="45.2097" lon="5.73259">
        <ele>554.59997558594</ele>
        <time>2013-11-27T11:02:13.000Z</time>
      </trkpt>
      <trkpt lat="45.20978" lon="5.73256">
        <ele>558.79998779297</ele>
        <time>2013-11-27T11:02:19.000Z</time>
      </trkpt>
      <trkpt lat="45.20988" lon="5.73252">
        <ele>564.59997558594</ele>
        <time>2013-11-27T11:02:27.000Z</time>
      </trkpt>
      <trkpt lat="45.2099" lon="5.73253">
        <ele>565</ele>
        <time>2013-11-27T11:02:30.000Z</time>
      </trkpt>
      <trkpt lat="45.2098" lon="5.7325">
        <ele>563.79998779297</ele>
        <time>2013-11-27T11:02:37.000Z</time>
      </trkpt>
      <trkpt lat="45.20972" lon="5.73246">
        <ele>563.40002441406</ele>
        <time>2013-11-27T11:02:43.000Z</time>
      </trkpt>
      <trkpt lat="45.20966" lon="5.73243">
        <ele>563.20001220703</ele>
        <time>2013-11-27T11:02:47.000Z</time>
      </trkpt>
      <trkpt lat="45.20958" lon="5.73245">
        <ele>559.59997558594</ele>
        <time>2013-11-27T11:02:52.000Z</time>
      </trkpt>
      <trkpt lat="45.20947" lon="5.73241">
        <ele>558.20001220703</ele>
        <time>2013-11-27T11:02:59.000Z</time>
      </trkpt>
      <trkpt lat="45.20938" lon="5.73234">
        <ele>559.59997558594</ele>
        <time>2013-11-27T11:03:06.000Z</time>
      </trkpt>
      <trkpt lat="45.20935" lon="5.73231">
        <ele>560.20001220703</ele>
        <time>2013-11-27T11:03:08.000Z</time>
      </trkpt>
      <trkpt lat="45.20936" lon="5.73229">
        <ele>562.20001220703</ele>
        <time>2013-11-27T11:03:12.000Z</time>
      </trkpt>
      <trkpt lat="45.20946" lon="5.73231">
        <ele>564.20001220703</ele>
        <time>2013-11-27T11:03:19.000Z</time>
      </trkpt>
      <trkpt lat="45.20956" lon="5.73229">
        <ele>569</ele>
        <time>2013-11-27T11:03:25.000Z</time>
      </trkpt>
      <trkpt lat="45.20962" lon="5.73226">
        <ele>572.59997558594</ele>
        <time>2013-11-27T11:03:29.000Z</time>
      </trkpt>
      <trkpt lat="45.20969" lon="5.73225">
        <ele>575.79998779297</ele>
        <time>2013-11-27T11:03:34.000Z</time>
      </trkpt>
      <trkpt lat="45.20974" lon="5.73223">
        <ele>578.79998779297</ele>
        <time>2013-11-27T11:03:38.000Z</time>
      </trkpt>
      <trkpt lat="45.20984" lon="5.73221">
        <ele>583.40002441406</ele>
        <time>2013-11-27T11:03:44.000Z</time>
      </trkpt>
      <trkpt lat="45.20993" lon="5.73218">
        <ele>588.59997558594</ele>
        <time>2013-11-27T11:03:51.000Z</time>
      </trkpt>
      <trkpt lat="45.20993" lon="5.73218">
        <ele>588.59997558594</ele>
        <time>2013-11-27T11:03:52.000Z</time>
      </trkpt>
      <trkpt lat="45.20984" lon="5.73217">
        <ele>586</ele>
        <time>2013-11-27T11:03:58.000Z</time>
      </trkpt>
      <trkpt lat="45.20979" lon="5.73217">
        <ele>584.59997558594</ele>
        <time>2013-11-27T11:04:01.000Z</time>
      </trkpt>
      <trkpt lat="45.20979" lon="5.73214">
        <ele>586.40002441406</ele>
        <time>2013-11-27T11:04:05.000Z</time>
      </trkpt>
      <trkpt lat="45.2098" lon="5.73214">
        <ele>586.79998779297</ele>
        <time>2013-11-27T11:04:06.000Z</time>
      </trkpt>
      <trkpt lat="45.20985" lon="5.73212">
        <ele>589.59997558594</ele>
        <time>2013-11-27T11:04:10.000Z</time>
      </trkpt>
      <trkpt lat="45.20993" lon="5.73205">
        <ele>597</ele>
        <time>2013-11-27T11:04:16.000Z</time>
      </trkpt>
      <trkpt lat="45.20999" lon="5.73194">
        <ele>606.40002441406</ele>
        <time>2013-11-27T11:04:22.000Z</time>
      </trkpt>
      <trkpt lat="45.21009" lon="5.73187">
        <ele>613.20001220703</ele>
        <time>2013-11-27T11:04:29.000Z</time>
      </trkpt>
      <trkpt lat="45.21014" lon="5.73182">
        <ele>617</ele>
        <time>2013-11-27T11:04:34.000Z</time>
      </trkpt>
      <trkpt lat="45.2102" lon="5.73179">
        <ele>620</ele>
        <time>2013-11-27T11:04:38.000Z</time>
      </trkpt>
      <trkpt lat="45.21024" lon="5.73177">
        <ele>621.20001220703</ele>
        <time>2013-11-27T11:04:41.000Z</time>
      </trkpt>
      <trkpt lat="45.21032" lon="5.73188">
        <ele>615.40002441406</ele>
        <time>2013-11-27T11:04:47.000Z</time>
      </trkpt>
      <trkpt lat="45.21042" lon="5.73194">
        <ele>613</ele>
        <time>2013-11-27T11:04:54.000Z</time>
      </trkpt>
      <trkpt lat="45.21044" lon="5.73195">
        <ele>612.79998779297</ele>
        <time>2013-11-27T11:04:55.000Z</time>
      </trkpt>
      <trkpt lat="45.21049" lon="5.73197">
        <ele>612.20001220703</ele>
        <time>2013-11-27T11:04:59.000Z</time>
      </trkpt>
      <trkpt lat="45.21052" lon="5.73198">
        <ele>612.40002441406</ele>
        <time>2013-11-27T11:05:02.000Z</time>
      </trkpt>
      <trkpt lat="45.21055" lon="5.73195">
        <ele>614.40002441406</ele>
        <time>2013-11-27T11:05:05.000Z</time>
      </trkpt>
      <trkpt lat="45.21062" lon="5.73198">
        <ele>613.79998779297</ele>
        <time>2013-11-27T11:05:09.000Z</time>
      </trkpt>
      <trkpt lat="45.21066" lon="5.73202">
        <ele>611.79998779297</ele>
        <time>2013-11-27T11:05:13.000Z</time>
      </trkpt>
      <trkpt lat="45.21074" lon="5.73208">
        <ele>609</ele>
        <time>2013-11-27T11:05:19.000Z</time>
      </trkpt>
      <trkpt lat="45.2108" lon="5.73217">
        <ele>604.79998779297</ele>
        <time>2013-11-27T11:05:24.000Z</time>
      </trkpt>
      <trkpt lat="45.21086" lon="5.73222">
        <ele>604</ele>
        <time>2013-11-27T11:05:29.000Z</time>
      </trkpt>
      <trkpt lat="45.2109" lon="5.73222">
        <ele>606.20001220703</ele>
        <time>2013-11-27T11:05:33.000Z</time>
      </trkpt>
      <trkpt lat="45.21084" lon="5.73213">
        <ele>607.79998779297</ele>
        <time>2013-11-27T11:05:40.000Z</time>
      </trkpt>
      <trkpt lat="45.21079" lon="5.73199">
        <ele>615.40002441406</ele>
        <time>2013-11-27T11:05:48.000Z</time>
      </trkpt>
      <trkpt lat="45.21071" lon="5.7319">
        <ele>619.79998779297</ele>
        <time>2013-11-27T11:05:55.000Z</time>
      </trkpt>
      <trkpt lat="45.21068" lon="5.73178">
        <ele>627</ele>
        <time>2013-11-27T11:06:02.000Z</time>
      </trkpt>
      <trkpt lat="45.21067" lon="5.73176">
        <ele>627.79998779297</ele>
        <time>2013-11-27T11:06:03.000Z</time>
      </trkpt>
      <trkpt lat="45.21059" lon="5.73175">
        <ele>627.59997558594</ele>
        <time>2013-11-27T11:06:08.000Z</time>
      </trkpt>
      <trkpt lat="45.21052" lon="5.73167">
        <ele>631.79998779297</ele>
        <time>2013-11-27T11:06:13.000Z</time>
      </trkpt>
      <trkpt lat="45.21042" lon="5.73157">
        <ele>635.79998779297</ele>
        <time>2013-11-27T11:06:20.000Z</time>
      </trkpt>
      <trkpt lat="45.21041" lon="5.73155">
        <ele>636.40002441406</ele>
        <time>2013-11-27T11:06:21.000Z</time>
      </trkpt>
      <trkpt lat="45.21032" lon="5.73144">
        <ele>640.59997558594</ele>
        <time>2013-11-27T11:06:29.000Z</time>
      </trkpt>
      <trkpt lat="45.2103" lon="5.7314">
        <ele>642.59997558594</ele>
        <time>2013-11-27T11:06:34.000Z</time>
      </trkpt>
      <trkpt lat="45.21024" lon="5.73138">
        <ele>642.59997558594</ele>
        <time>2013-11-27T11:06:39.000Z</time>
      </trkpt>
      <trkpt lat="45.21021" lon="5.73136">
        <ele>642.79998779297</ele>
        <time>2013-11-27T11:06:41.000Z</time>
      </trkpt>
      <trkpt lat="45.21016" lon="5.7314">
        <ele>640</ele>
        <time>2013-11-27T11:06:46.000Z</time>
      </trkpt>
      <trkpt lat="45.21005" lon="5.73141">
        <ele>638</ele>
        <time>2013-11-27T11:06:53.000Z</time>
      </trkpt>
      <trkpt lat="45.20999" lon="5.73143">
        <ele>635.59997558594</ele>
        <time>2013-11-27T11:06:58.000Z</time>
      </trkpt>
      <trkpt lat="45.20994" lon="5.73147">
        <ele>631.59997558594</ele>
        <time>2013-11-27T11:07:02.000Z</time>
      </trkpt>
      <trkpt lat="45.20992" lon="5.73144">
        <ele>632.20001220703</ele>
        <time>2013-11-27T11:07:06.000Z</time>
      </trkpt>
      <trkpt lat="45.20996" lon="5.73142">
        <ele>634.59997558594</ele>
        <time>2013-11-27T11:07:09.000Z</time>
      </trkpt>
      <trkpt lat="45.21004" lon="5.73134">
        <ele>640.79998779297</ele>
        <time>2013-11-27T11:07:16.000Z</time>
      </trkpt>
      <trkpt lat="45.21005" lon="5.73134">
        <ele>641.20001220703</ele>
        <time>2013-11-27T11:07:17.000Z</time>
      </trkpt>
      <trkpt lat="45.21011" lon="5.73126">
        <ele>646</ele>
        <time>2013-11-27T11:07:23.000Z</time>
      </trkpt>
      <trkpt lat="45.21015" lon="5.73118">
        <ele>650.59997558594</ele>
        <time>2013-11-27T11:07:28.000Z</time>
      </trkpt>
      <trkpt lat="45.21016" lon="5.73117">
        <ele>651.40002441406</ele>
        <time>2013-11-27T11:07:29.000Z</time>
      </trkpt>
      <trkpt lat="45.21018" lon="5.73115">
        <ele>653</ele>
        <time>2013-11-27T11:07:31.000Z</time>
      </trkpt>
      <trkpt lat="45.21021" lon="5.73111">
        <ele>655.20001220703</ele>
        <time>2013-11-27T11:07:35.000Z</time>
      </trkpt>
      <trkpt lat="45.21031" lon="5.73114">
        <ele>655.79998779297</ele>
        <time>2013-11-27T11:07:42.000Z</time>
      </trkpt>
      <trkpt lat="45.21037" lon="5.73117">
        <ele>655.40002441406</ele>
        <time>2013-11-27T11:07:47.000Z</time>
      </trkpt>
      <trkpt lat="45.21043" lon="5.73119">
        <ele>655.59997558594</ele>
        <time>2013-11-27T11:07:51.000Z</time>
      </trkpt>
      <trkpt lat="45.21055" lon="5.73127">
        <ele>653.59997558594</ele>
        <time>2013-11-27T11:07:59.000Z</time>
      </trkpt>
      <trkpt lat="45.21063" lon="5.73133">
        <ele>652.20001220703</ele>
        <time>2013-11-27T11:08:05.000Z</time>
      </trkpt>
      <trkpt lat="45.21071" lon="5.7313">
        <ele>654.59997558594</ele>
        <time>2013-11-27T11:08:11.000Z</time>
      </trkpt>
      <trkpt lat="45.21078" lon="5.73131">
        <ele>655.79998779297</ele>
        <time>2013-11-27T11:08:17.000Z</time>
      </trkpt>
      <trkpt lat="45.21081" lon="5.73134">
        <ele>654.40002441406</ele>
        <time>2013-11-27T11:08:19.000Z</time>
      </trkpt>
      <trkpt lat="45.21093" lon="5.73143">
        <ele>654.20001220703</ele>
        <time>2013-11-27T11:08:27.000Z</time>
      </trkpt>
      <trkpt lat="45.21099" lon="5.73152">
        <ele>652.20001220703</ele>
        <time>2013-11-27T11:08:32.000Z</time>
      </trkpt>
      <trkpt lat="45.21102" lon="5.73153">
        <ele>652.59997558594</ele>
        <time>2013-11-27T11:08:34.000Z</time>
      </trkpt>
      <trkpt lat="45.21111" lon="5.73158">
        <ele>654.40002441406</ele>
        <time>2013-11-27T11:08:40.000Z</time>
      </trkpt>
      <trkpt lat="45.21113" lon="5.73157">
        <ele>655.79998779297</ele>
        <time>2013-11-27T11:08:42.000Z</time>
      </trkpt>
      <trkpt lat="45.21119" lon="5.73153">
        <ele>661.20001220703</ele>
        <time>2013-11-27T11:08:47.000Z</time>
      </trkpt>
      <trkpt lat="45.21131" lon="5.73147">
        <ele>670.20001220703</ele>
        <time>2013-11-27T11:08:54.000Z</time>
      </trkpt>
      <trkpt lat="45.21133" lon="5.73147">
        <ele>670.79998779297</ele>
        <time>2013-11-27T11:08:55.000Z</time>
      </trkpt>
      <trkpt lat="45.21137" lon="5.73145">
        <ele>674</ele>
        <time>2013-11-27T11:08:59.000Z</time>
      </trkpt>
      <trkpt lat="45.21137" lon="5.73142">
        <ele>675.59997558594</ele>
        <time>2013-11-27T11:09:05.000Z</time>
      </trkpt>
      <trkpt lat="45.21133" lon="5.73141">
        <ele>674.40002441406</ele>
        <time>2013-11-27T11:09:08.000Z</time>
      </trkpt>
      <trkpt lat="45.21124" lon="5.7314">
        <ele>670.40002441406</ele>
        <time>2013-11-27T11:09:15.000Z</time>
      </trkpt>
      <trkpt lat="45.21117" lon="5.73146">
        <ele>664.20001220703</ele>
        <time>2013-11-27T11:09:20.000Z</time>
      </trkpt>
      <trkpt lat="45.21117" lon="5.73143">
        <ele>665.20001220703</ele>
        <time>2013-11-27T11:09:25.000Z</time>
      </trkpt>
      <trkpt lat="45.2112" lon="5.73141">
        <ele>668.20001220703</ele>
        <time>2013-11-27T11:09:28.000Z</time>
      </trkpt>
      <trkpt lat="45.21125" lon="5.7314">
        <ele>671.20001220703</ele>
        <time>2013-11-27T11:09:33.000Z</time>
      </trkpt>
      <trkpt lat="45.21126" lon="5.73139">
        <ele>672.20001220703</ele>
        <time>2013-11-27T11:09:34.000Z</time>
      </trkpt>
      <trkpt lat="45.21135" lon="5.73137">
        <ele>677.40002441406</ele>
        <time>2013-11-27T11:09:40.000Z</time>
      </trkpt>
      <trkpt lat="45.21138" lon="5.73134">
        <ele>680.59997558594</ele>
        <time>2013-11-27T11:09:43.000Z</time>
      </trkpt>
      <trkpt lat="45.21145" lon="5.73131">
        <ele>685.40002441406</ele>
        <time>2013-11-27T11:09:49.000Z</time>
      </trkpt>
      <trkpt lat="45.21154" lon="5.73133">
        <ele>688.40002441406</ele>
        <time>2013-11-27T11:09:54.000Z</time>
      </trkpt>
      <trkpt lat="45.21159" lon="5.73141">
        <ele>686.79998779297</ele>
        <time>2013-11-27T11:09:59.000Z</time>
      </trkpt>
      <trkpt lat="45.2116" lon="5.73142">
        <ele>686.59997558594</ele>
        <time>2013-11-27T11:10:00.000Z</time>
      </trkpt>
      <trkpt lat="45.21171" lon="5.73151">
        <ele>688.20001220703</ele>
        <time>2013-11-27T11:10:08.000Z</time>
      </trkpt>
      <trkpt lat="45.21175" lon="5.73154">
        <ele>689.79998779297</ele>
        <time>2013-11-27T11:10:11.000Z</time>
      </trkpt>
      <trkpt lat="45.2118" lon="5.7316">
        <ele>690.59997558594</ele>
        <time>2013-11-27T11:10:15.000Z</time>
      </trkpt>
      <trkpt lat="45.21186" lon="5.73166">
        <ele>692</ele>
        <time>2013-11-27T11:10:20.000Z</time>
      </trkpt>
      <trkpt lat="45.21194" lon="5.73176">
        <ele>693</ele>
        <time>2013-11-27T11:10:27.000Z</time>
      </trkpt>
      <trkpt lat="45.212" lon="5.73183">
        <ele>693.59997558594</ele>
        <time>2013-11-27T11:10:33.000Z</time>
      </trkpt>
      <trkpt lat="45.21206" lon="5.73193">
        <ele>693.59997558594</ele>
        <time>2013-11-27T11:10:39.000Z</time>
      </trkpt>
      <trkpt lat="45.21212" lon="5.732">
        <ele>694.20001220703</ele>
        <time>2013-11-27T11:10:45.000Z</time>
      </trkpt>
      <trkpt lat="45.2122" lon="5.73207">
        <ele>696.59997558594</ele>
        <time>2013-11-27T11:10:51.000Z</time>
      </trkpt>
      <trkpt lat="45.21225" lon="5.73215">
        <ele>696</ele>
        <time>2013-11-27T11:10:57.000Z</time>
      </trkpt>
      <trkpt lat="45.21231" lon="5.73221">
        <ele>697</ele>
        <time>2013-11-27T11:11:02.000Z</time>
      </trkpt>
      <trkpt lat="45.21238" lon="5.73227">
        <ele>698.79998779297</ele>
        <time>2013-11-27T11:11:07.000Z</time>
      </trkpt>
      <trkpt lat="45.21246" lon="5.7323">
        <ele>702.79998779297</ele>
        <time>2013-11-27T11:11:12.000Z</time>
      </trkpt>
      <trkpt lat="45.21248" lon="5.73231">
        <ele>703.20001220703</ele>
        <time>2013-11-27T11:11:14.000Z</time>
      </trkpt>
      <trkpt lat="45.21255" lon="5.73239">
        <ele>704.20001220703</ele>
        <time>2013-11-27T11:11:21.000Z</time>
      </trkpt>
      <trkpt lat="45.21259" lon="5.73243">
        <ele>705.20001220703</ele>
        <time>2013-11-27T11:11:26.000Z</time>
      </trkpt>
      <trkpt lat="45.21259" lon="5.73245">
        <ele>704.79998779297</ele>
        <time>2013-11-27T11:11:27.000Z</time>
      </trkpt>
      <trkpt lat="45.21267" lon="5.7326">
        <ele>702.79998779297</ele>
        <time>2013-11-27T11:11:36.000Z</time>
      </trkpt>
      <trkpt lat="45.2127" lon="5.73265">
        <ele>702.79998779297</ele>
        <time>2013-11-27T11:11:40.000Z</time>
      </trkpt>
      <trkpt lat="45.21278" lon="5.73269">
        <ele>706.20001220703</ele>
        <time>2013-11-27T11:11:46.000Z</time>
      </trkpt>
      <trkpt lat="45.21285" lon="5.73273">
        <ele>709.59997558594</ele>
        <time>2013-11-27T11:11:52.000Z</time>
      </trkpt>
      <trkpt lat="45.21291" lon="5.73278">
        <ele>711.40002441406</ele>
        <time>2013-11-27T11:11:56.000Z</time>
      </trkpt>
      <trkpt lat="45.21293" lon="5.73281">
        <ele>711.20001220703</ele>
        <time>2013-11-27T11:11:58.000Z</time>
      </trkpt>
      <trkpt lat="45.21297" lon="5.73282">
        <ele>713.20001220703</ele>
        <time>2013-11-27T11:12:01.000Z</time>
      </trkpt>
      <trkpt lat="45.21303" lon="5.73283">
        <ele>716.59997558594</ele>
        <time>2013-11-27T11:12:07.000Z</time>
      </trkpt>
      <trkpt lat="45.21305" lon="5.73291">
        <ele>713.79998779297</ele>
        <time>2013-11-27T11:12:11.000Z</time>
      </trkpt>
      <trkpt lat="45.2131" lon="5.73298">
        <ele>713.40002441406</ele>
        <time>2013-11-27T11:12:16.000Z</time>
      </trkpt>
      <trkpt lat="45.21315" lon="5.73299">
        <ele>716.59997558594</ele>
        <time>2013-11-27T11:12:21.000Z</time>
      </trkpt>
      <trkpt lat="45.21321" lon="5.73299">
        <ele>720.79998779297</ele>
        <time>2013-11-27T11:12:27.000Z</time>
      </trkpt>
      <trkpt lat="45.21328" lon="5.73299">
        <ele>725.20001220703</ele>
        <time>2013-11-27T11:12:32.000Z</time>
      </trkpt>
      <trkpt lat="45.21331" lon="5.73299">
        <ele>726.79998779297</ele>
        <time>2013-11-27T11:12:34.000Z</time>
      </trkpt>
      <trkpt lat="45.21333" lon="5.733">
        <ele>727.79998779297</ele>
        <time>2013-11-27T11:12:36.000Z</time>
      </trkpt>
      <trkpt lat="45.21338" lon="5.733">
        <ele>732.20001220703</ele>
        <time>2013-11-27T11:12:41.000Z</time>
      </trkpt>
      <trkpt lat="45.21343" lon="5.73312">
        <ele>730</ele>
        <time>2013-11-27T11:12:48.000Z</time>
      </trkpt>
      <trkpt lat="45.21344" lon="5.73313">
        <ele>730.20001220703</ele>
        <time>2013-11-27T11:12:49.000Z</time>
      </trkpt>
      <trkpt lat="45.21351" lon="5.73318">
        <ele>733</ele>
        <time>2013-11-27T11:12:55.000Z</time>
      </trkpt>
      <trkpt lat="45.21357" lon="5.73322">
        <ele>736</ele>
        <time>2013-11-27T11:13:00.000Z</time>
      </trkpt>
      <trkpt lat="45.21364" lon="5.7333">
        <ele>738</ele>
        <time>2013-11-27T11:13:06.000Z</time>
      </trkpt>
      <trkpt lat="45.2137" lon="5.73338">
        <ele>739.59997558594</ele>
        <time>2013-11-27T11:13:12.000Z</time>
      </trkpt>
      <trkpt lat="45.21375" lon="5.73343">
        <ele>741.59997558594</ele>
        <time>2013-11-27T11:13:17.000Z</time>
      </trkpt>
      <trkpt lat="45.2138" lon="5.73354">
        <ele>741.79998779297</ele>
        <time>2013-11-27T11:13:24.000Z</time>
      </trkpt>
      <trkpt lat="45.21385" lon="5.73361">
        <ele>743.79998779297</ele>
        <time>2013-11-27T11:13:30.000Z</time>
      </trkpt>
      <trkpt lat="45.21387" lon="5.73363">
        <ele>745</ele>
        <time>2013-11-27T11:13:32.000Z</time>
      </trkpt>
      <trkpt lat="45.21393" lon="5.73367">
        <ele>748.20001220703</ele>
        <time>2013-11-27T11:13:37.000Z</time>
      </trkpt>
      <trkpt lat="45.21401" lon="5.73379">
        <ele>750</ele>
        <time>2013-11-27T11:13:44.000Z</time>
      </trkpt>
      <trkpt lat="45.21403" lon="5.73381">
        <ele>750.79998779297</ele>
        <time>2013-11-27T11:13:46.000Z</time>
      </trkpt>
      <trkpt lat="45.2141" lon="5.73388">
        <ele>754.20001220703</ele>
        <time>2013-11-27T11:13:53.000Z</time>
      </trkpt>
      <trkpt lat="45.21413" lon="5.73401">
        <ele>752.40002441406</ele>
        <time>2013-11-27T11:14:00.000Z</time>
      </trkpt>
      <trkpt lat="45.21414" lon="5.73403">
        <ele>752</ele>
        <time>2013-11-27T11:14:01.000Z</time>
      </trkpt>
      <trkpt lat="45.21418" lon="5.73411">
        <ele>752.40002441406</ele>
        <time>2013-11-27T11:14:06.000Z</time>
      </trkpt>
      <trkpt lat="45.21425" lon="5.73425">
        <ele>753.79998779297</ele>
        <time>2013-11-27T11:14:14.000Z</time>
      </trkpt>
      <trkpt lat="45.21428" lon="5.73432">
        <ele>754</ele>
        <time>2013-11-27T11:14:18.000Z</time>
      </trkpt>
      <trkpt lat="45.21433" lon="5.73443">
        <ele>754.79998779297</ele>
        <time>2013-11-27T11:14:25.000Z</time>
      </trkpt>
      <trkpt lat="45.2144" lon="5.73454">
        <ele>757.79998779297</ele>
        <time>2013-11-27T11:14:33.000Z</time>
      </trkpt>
      <trkpt lat="45.21442" lon="5.73457">
        <ele>758.59997558594</ele>
        <time>2013-11-27T11:14:35.000Z</time>
      </trkpt>
      <trkpt lat="45.21445" lon="5.73465">
        <ele>758.40002441406</ele>
        <time>2013-11-27T11:14:39.000Z</time>
      </trkpt>
      <trkpt lat="45.21449" lon="5.73472">
        <ele>760</ele>
        <time>2013-11-27T11:14:44.000Z</time>
      </trkpt>
      <trkpt lat="45.21456" lon="5.73484">
        <ele>762.20001220703</ele>
        <time>2013-11-27T11:14:51.000Z</time>
      </trkpt>
      <trkpt lat="45.21457" lon="5.73486">
        <ele>762.59997558594</ele>
        <time>2013-11-27T11:14:52.000Z</time>
      </trkpt>
      <trkpt lat="45.21466" lon="5.73495">
        <ele>767.20001220703</ele>
        <time>2013-11-27T11:14:59.000Z</time>
      </trkpt>
      <trkpt lat="45.21471" lon="5.73505">
        <ele>767.59997558594</ele>
        <time>2013-11-27T11:15:05.000Z</time>
      </trkpt>
      <trkpt lat="45.21474" lon="5.73519">
        <ele>764.40002441406</ele>
        <time>2013-11-27T11:15:12.000Z</time>
      </trkpt>
      <trkpt lat="45.21475" lon="5.73529">
        <ele>760.79998779297</ele>
        <time>2013-11-27T11:15:17.000Z</time>
      </trkpt>
      <trkpt lat="45.21478" lon="5.73537">
        <ele>760.20001220703</ele>
        <time>2013-11-27T11:15:21.000Z</time>
      </trkpt>
      <trkpt lat="45.21483" lon="5.73548">
        <ele>760</ele>
        <time>2013-11-27T11:15:28.000Z</time>
      </trkpt>
      <trkpt lat="45.21484" lon="5.7355">
        <ele>760</ele>
        <time>2013-11-27T11:15:29.000Z</time>
      </trkpt>
      <trkpt lat="45.21492" lon="5.73558">
        <ele>764.40002441406</ele>
        <time>2013-11-27T11:15:36.000Z</time>
      </trkpt>
      <trkpt lat="45.21498" lon="5.73562">
        <ele>767.40002441406</ele>
        <time>2013-11-27T11:15:40.000Z</time>
      </trkpt>
      <trkpt lat="45.215" lon="5.73565">
        <ele>768.59997558594</ele>
        <time>2013-11-27T11:15:42.000Z</time>
      </trkpt>
      <trkpt lat="45.21509" lon="5.73571">
        <ele>772.59997558594</ele>
        <time>2013-11-27T11:15:49.000Z</time>
      </trkpt>
      <trkpt lat="45.21513" lon="5.7358">
        <ele>772</ele>
        <time>2013-11-27T11:15:55.000Z</time>
      </trkpt>
      <trkpt lat="45.21514" lon="5.73592">
        <ele>767.79998779297</ele>
        <time>2013-11-27T11:16:01.000Z</time>
      </trkpt>
      <trkpt lat="45.21513" lon="5.73594">
        <ele>766</ele>
        <time>2013-11-27T11:16:03.000Z</time>
      </trkpt>
      <trkpt lat="45.21518" lon="5.73604">
        <ele>764.40002441406</ele>
        <time>2013-11-27T11:16:09.000Z</time>
      </trkpt>
      <trkpt lat="45.21519" lon="5.73603">
        <ele>766.20001220703</ele>
        <time>2013-11-27T11:16:13.000Z</time>
      </trkpt>
      <trkpt lat="45.21519" lon="5.73592">
        <ele>771.40002441406</ele>
        <time>2013-11-27T11:16:19.000Z</time>
      </trkpt>
      <trkpt lat="45.21521" lon="5.73586">
        <ele>775.79998779297</ele>
        <time>2013-11-27T11:16:23.000Z</time>
      </trkpt>
      <trkpt lat="45.21523" lon="5.73586">
        <ele>777.40002441406</ele>
        <time>2013-11-27T11:16:27.000Z</time>
      </trkpt>
      <trkpt lat="45.21524" lon="5.73592">
        <ele>775.40002441406</ele>
        <time>2013-11-27T11:16:31.000Z</time>
      </trkpt>
      <trkpt lat="45.2153" lon="5.73603">
        <ele>774.20001220703</ele>
        <time>2013-11-27T11:16:38.000Z</time>
      </trkpt>
      <trkpt lat="45.21534" lon="5.7361">
        <ele>774.40002441406</ele>
        <time>2013-11-27T11:16:43.000Z</time>
      </trkpt>
      <trkpt lat="45.21539" lon="5.73617">
        <ele>774</ele>
        <time>2013-11-27T11:16:47.000Z</time>
      </trkpt>
      <trkpt lat="45.21544" lon="5.73627">
        <ele>772.79998779297</ele>
        <time>2013-11-27T11:16:53.000Z</time>
      </trkpt>
      <trkpt lat="45.21544" lon="5.73624">
        <ele>774.79998779297</ele>
        <time>2013-11-27T11:16:58.000Z</time>
      </trkpt>
      <trkpt lat="45.21543" lon="5.73612">
        <ele>779.40002441406</ele>
        <time>2013-11-27T11:17:05.000Z</time>
      </trkpt>
      <trkpt lat="45.2154" lon="5.73607">
        <ele>780.20001220703</ele>
        <time>2013-11-27T11:17:08.000Z</time>
      </trkpt>
      <trkpt lat="45.21542" lon="5.73605">
        <ele>782.40002441406</ele>
        <time>2013-11-27T11:17:13.000Z</time>
      </trkpt>
      <trkpt lat="45.21546" lon="5.7361">
        <ele>782.79998779297</ele>
        <time>2013-11-27T11:17:16.000Z</time>
      </trkpt>
      <trkpt lat="45.21548" lon="5.73615">
        <ele>781.79998779297</ele>
        <time>2013-11-27T11:17:19.000Z</time>
      </trkpt>
      <trkpt lat="45.21549" lon="5.73615">
        <ele>783</ele>
        <time>2013-11-27T11:17:25.000Z</time>
      </trkpt>
      <trkpt lat="45.21548" lon="5.73605">
        <ele>786.79998779297</ele>
        <time>2013-11-27T11:17:31.000Z</time>
      </trkpt>
      <trkpt lat="45.21546" lon="5.736">
        <ele>787.40002441406</ele>
        <time>2013-11-27T11:17:34.000Z</time>
      </trkpt>
      <trkpt lat="45.21545" lon="5.73593">
        <ele>789.79998779297</ele>
        <time>2013-11-27T11:17:38.000Z</time>
      </trkpt>
      <trkpt lat="45.21541" lon="5.73581">
        <ele>793</ele>
        <time>2013-11-27T11:17:45.000Z</time>
      </trkpt>
      <trkpt lat="45.2154" lon="5.73571">
        <ele>795.79998779297</ele>
        <time>2013-11-27T11:17:51.000Z</time>
      </trkpt>
      <trkpt lat="45.2154" lon="5.73562">
        <ele>799</ele>
        <time>2013-11-27T11:17:56.000Z</time>
      </trkpt>
      <trkpt lat="45.2154" lon="5.73557">
        <ele>800.79998779297</ele>
        <time>2013-11-27T11:17:59.000Z</time>
      </trkpt>
      <trkpt lat="45.21543" lon="5.73558">
        <ele>802.40002441406</ele>
        <time>2013-11-27T11:18:03.000Z</time>
      </trkpt>
      <trkpt lat="45.21548" lon="5.73567">
        <ele>802.79998779297</ele>
        <time>2013-11-27T11:18:10.000Z</time>
      </trkpt>
      <trkpt lat="45.21551" lon="5.73574">
        <ele>802.79998779297</ele>
        <time>2013-11-27T11:18:15.000Z</time>
      </trkpt>
      <trkpt lat="45.21556" lon="5.73579">
        <ele>804.79998779297</ele>
        <time>2013-11-27T11:18:20.000Z</time>
      </trkpt>
      <trkpt lat="45.21558" lon="5.73583">
        <ele>804.79998779297</ele>
        <time>2013-11-27T11:18:23.000Z</time>
      </trkpt>
      <trkpt lat="45.21563" lon="5.73591">
        <ele>804.79998779297</ele>
        <time>2013-11-27T11:18:29.000Z</time>
      </trkpt>
      <trkpt lat="45.21568" lon="5.736">
        <ele>804</ele>
        <time>2013-11-27T11:18:34.000Z</time>
      </trkpt>
      <trkpt lat="45.2157" lon="5.736">
        <ele>805.59997558594</ele>
        <time>2013-11-27T11:18:39.000Z</time>
      </trkpt>
      <trkpt lat="45.21568" lon="5.73592">
        <ele>808.40002441406</ele>
        <time>2013-11-27T11:18:44.000Z</time>
      </trkpt>
      <trkpt lat="45.21567" lon="5.73586">
        <ele>810.59997558594</ele>
        <time>2013-11-27T11:18:47.000Z</time>
      </trkpt>
      <trkpt lat="45.21566" lon="5.73573">
        <ele>814.20001220703</ele>
        <time>2013-11-27T11:18:53.000Z</time>
      </trkpt>
      <trkpt lat="45.21564" lon="5.73566">
        <ele>814.79998779297</ele>
        <time>2013-11-27T11:18:56.000Z</time>
      </trkpt>
      <trkpt lat="45.21561" lon="5.73555">
        <ele>817</ele>
        <time>2013-11-27T11:19:01.000Z</time>
      </trkpt>
      <trkpt lat="45.2156" lon="5.73541">
        <ele>821.20001220703</ele>
        <time>2013-11-27T11:19:08.000Z</time>
      </trkpt>
      <trkpt lat="45.21561" lon="5.73526">
        <ele>826.79998779297</ele>
        <time>2013-11-27T11:19:15.000Z</time>
      </trkpt>
      <trkpt lat="45.21561" lon="5.73521">
        <ele>829</ele>
        <time>2013-11-27T11:19:18.000Z</time>
      </trkpt>
      <trkpt lat="45.21558" lon="5.73513">
        <ele>829.20001220703</ele>
        <time>2013-11-27T11:19:22.000Z</time>
      </trkpt>
      <trkpt lat="45.21556" lon="5.73506">
        <ele>830.59997558594</ele>
        <time>2013-11-27T11:19:26.000Z</time>
      </trkpt>
      <trkpt lat="45.21556" lon="5.73499">
        <ele>832.20001220703</ele>
        <time>2013-11-27T11:19:30.000Z</time>
      </trkpt>
      <trkpt lat="45.21546" lon="5.7349">
        <ele>828.79998779297</ele>
        <time>2013-11-27T11:19:38.000Z</time>
      </trkpt>
      <trkpt lat="45.21542" lon="5.73487">
        <ele>827.40002441406</ele>
        <time>2013-11-27T11:19:41.000Z</time>
      </trkpt>
      <trkpt lat="45.21541" lon="5.73478">
        <ele>829.40002441406</ele>
        <time>2013-11-27T11:19:47.000Z</time>
      </trkpt>
      <trkpt lat="45.21549" lon="5.73483">
        <ele>833.40002441406</ele>
        <time>2013-11-27T11:19:54.000Z</time>
      </trkpt>
      <trkpt lat="45.21556" lon="5.73485">
        <ele>837.59997558594</ele>
        <time>2013-11-27T11:19:59.000Z</time>
      </trkpt>
      <trkpt lat="45.21563" lon="5.73487">
        <ele>841.79998779297</ele>
        <time>2013-11-27T11:20:04.000Z</time>
      </trkpt>
      <trkpt lat="45.2157" lon="5.73495">
        <ele>843.40002441406</ele>
        <time>2013-11-27T11:20:10.000Z</time>
      </trkpt>
      <trkpt lat="45.21575" lon="5.73502">
        <ele>844.59997558594</ele>
        <time>2013-11-27T11:20:16.000Z</time>
      </trkpt>
      <trkpt lat="45.21578" lon="5.7351">
        <ele>844.40002441406</ele>
        <time>2013-11-27T11:20:20.000Z</time>
      </trkpt>
      <trkpt lat="45.21583" lon="5.7352">
        <ele>844.20001220703</ele>
        <time>2013-11-27T11:20:26.000Z</time>
      </trkpt>
      <trkpt lat="45.21588" lon="5.73531">
        <ele>843.20001220703</ele>
        <time>2013-11-27T11:20:32.000Z</time>
      </trkpt>
      <trkpt lat="45.2159" lon="5.73534">
        <ele>843.40002441406</ele>
        <time>2013-11-27T11:20:34.000Z</time>
      </trkpt>
      <trkpt lat="45.21598" lon="5.73547">
        <ele>842.79998779297</ele>
        <time>2013-11-27T11:20:42.000Z</time>
      </trkpt>
      <trkpt lat="45.21603" lon="5.73553">
        <ele>843.20001220703</ele>
        <time>2013-11-27T11:20:47.000Z</time>
      </trkpt>
      <trkpt lat="45.21609" lon="5.73562">
        <ele>843.20001220703</ele>
        <time>2013-11-27T11:20:53.000Z</time>
      </trkpt>
      <trkpt lat="45.21616" lon="5.73571">
        <ele>843.20001220703</ele>
        <time>2013-11-27T11:21:00.000Z</time>
      </trkpt>
      <trkpt lat="45.21621" lon="5.73578">
        <ele>843.20001220703</ele>
        <time>2013-11-27T11:21:05.000Z</time>
      </trkpt>
      <trkpt lat="45.21628" lon="5.73584">
        <ele>844.40002441406</ele>
        <time>2013-11-27T11:21:11.000Z</time>
      </trkpt>
      <trkpt lat="45.2163" lon="5.73586">
        <ele>844.59997558594</ele>
        <time>2013-11-27T11:21:13.000Z</time>
      </trkpt>
      <trkpt lat="45.21629" lon="5.7358">
        <ele>846.40002441406</ele>
        <time>2013-11-27T11:21:19.000Z</time>
      </trkpt>
      <trkpt lat="45.21624" lon="5.73567">
        <ele>848.79998779297</ele>
        <time>2013-11-27T11:21:26.000Z</time>
      </trkpt>
      <trkpt lat="45.21622" lon="5.73561">
        <ele>849.59997558594</ele>
        <time>2013-11-27T11:21:29.000Z</time>
      </trkpt>
      <trkpt lat="45.21619" lon="5.73549">
        <ele>852</ele>
        <time>2013-11-27T11:21:36.000Z</time>
      </trkpt>
      <trkpt lat="45.21617" lon="5.73541">
        <ele>853.79998779297</ele>
        <time>2013-11-27T11:21:40.000Z</time>
      </trkpt>
      <trkpt lat="45.21617" lon="5.73536">
        <ele>855.59997558594</ele>
        <time>2013-11-27T11:21:45.000Z</time>
      </trkpt>
      <trkpt lat="45.21618" lon="5.73537">
        <ele>855.59997558594</ele>
        <time>2013-11-27T11:21:46.000Z</time>
      </trkpt>
      <trkpt lat="45.21624" lon="5.73547">
        <ele>855.20001220703</ele>
        <time>2013-11-27T11:21:53.000Z</time>
      </trkpt>
      <trkpt lat="45.21632" lon="5.73557">
        <ele>855.79998779297</ele>
        <time>2013-11-27T11:22:01.000Z</time>
      </trkpt>
      <trkpt lat="45.21633" lon="5.73558">
        <ele>856</ele>
        <time>2013-11-27T11:22:02.000Z</time>
      </trkpt>
      <trkpt lat="45.21639" lon="5.73565">
        <ele>856.40002441406</ele>
        <time>2013-11-27T11:22:08.000Z</time>
      </trkpt>
      <trkpt lat="45.21645" lon="5.73569">
        <ele>858</ele>
        <time>2013-11-27T11:22:14.000Z</time>
      </trkpt>
      <trkpt lat="45.21651" lon="5.73572">
        <ele>859.79998779297</ele>
        <time>2013-11-27T11:22:20.000Z</time>
      </trkpt>
      <trkpt lat="45.21652" lon="5.73572">
        <ele>860</ele>
        <time>2013-11-27T11:22:21.000Z</time>
      </trkpt>
      <trkpt lat="45.21661" lon="5.73566">
        <ele>866.20001220703</ele>
        <time>2013-11-27T11:22:29.000Z</time>
      </trkpt>
      <trkpt lat="45.21665" lon="5.73566">
        <ele>868.40002441406</ele>
        <time>2013-11-27T11:22:33.000Z</time>
      </trkpt>
      <trkpt lat="45.21668" lon="5.73565">
        <ele>869.79998779297</ele>
        <time>2013-11-27T11:22:35.000Z</time>
      </trkpt>
      <trkpt lat="45.21677" lon="5.73565">
        <ele>873.20001220703</ele>
        <time>2013-11-27T11:22:41.000Z</time>
      </trkpt>
      <trkpt lat="45.21686" lon="5.73568">
        <ele>875.59997558594</ele>
        <time>2013-11-27T11:22:47.000Z</time>
      </trkpt>
      <trkpt lat="45.21692" lon="5.73568">
        <ele>877.40002441406</ele>
        <time>2013-11-27T11:22:52.000Z</time>
      </trkpt>
      <trkpt lat="45.217" lon="5.73568">
        <ele>880.59997558594</ele>
        <time>2013-11-27T11:22:59.000Z</time>
      </trkpt>
      <trkpt lat="45.21702" lon="5.73568">
        <ele>881.59997558594</ele>
        <time>2013-11-27T11:23:03.000Z</time>
      </trkpt>
      <trkpt lat="45.21699" lon="5.73564">
        <ele>882</ele>
        <time>2013-11-27T11:23:07.000Z</time>
      </trkpt>
      <trkpt lat="45.21694" lon="5.73558">
        <ele>882.40002441406</ele>
        <time>2013-11-27T11:23:12.000Z</time>
      </trkpt>
      <trkpt lat="45.21692" lon="5.73556">
        <ele>882.40002441406</ele>
        <time>2013-11-27T11:23:14.000Z</time>
      </trkpt>
      <trkpt lat="45.21684" lon="5.73549">
        <ele>881.59997558594</ele>
        <time>2013-11-27T11:23:21.000Z</time>
      </trkpt>
      <trkpt lat="45.21677" lon="5.73545">
        <ele>880.20001220703</ele>
        <time>2013-11-27T11:23:27.000Z</time>
      </trkpt>
      <trkpt lat="45.21672" lon="5.73543">
        <ele>879</ele>
        <time>2013-11-27T11:23:31.000Z</time>
      </trkpt>
      <trkpt lat="45.21664" lon="5.7354">
        <ele>877.20001220703</ele>
        <time>2013-11-27T11:23:36.000Z</time>
      </trkpt>
      <trkpt lat="45.21662" lon="5.73539">
        <ele>876.20001220703</ele>
        <time>2013-11-27T11:23:39.000Z</time>
      </trkpt>
      <trkpt lat="45.21665" lon="5.73535">
        <ele>879</ele>
        <time>2013-11-27T11:23:45.000Z</time>
      </trkpt>
      <trkpt lat="45.21675" lon="5.73533">
        <ele>883.79998779297</ele>
        <time>2013-11-27T11:23:52.000Z</time>
      </trkpt>
      <trkpt lat="45.21678" lon="5.73532">
        <ele>885.20001220703</ele>
        <time>2013-11-27T11:23:54.000Z</time>
      </trkpt>
      <trkpt lat="45.21692" lon="5.73531">
        <ele>891</ele>
        <time>2013-11-27T11:24:03.000Z</time>
      </trkpt>
      <trkpt lat="45.21694" lon="5.73531">
        <ele>892.40002441406</ele>
        <time>2013-11-27T11:24:05.000Z</time>
      </trkpt>
      <trkpt lat="45.21704" lon="5.73532">
        <ele>895.59997558594</ele>
        <time>2013-11-27T11:24:11.000Z</time>
      </trkpt>
      <trkpt lat="45.21708" lon="5.73532">
        <ele>897.20001220703</ele>
        <time>2013-11-27T11:24:14.000Z</time>
      </trkpt>
      <trkpt lat="45.21716" lon="5.73535">
        <ele>899.59997558594</ele>
        <time>2013-11-27T11:24:20.000Z</time>
      </trkpt>
      <trkpt lat="45.21714" lon="5.73529">
        <ele>900.79998779297</ele>
        <time>2013-11-27T11:24:26.000Z</time>
      </trkpt>
      <trkpt lat="45.21706" lon="5.73525">
        <ele>899</ele>
        <time>2013-11-27T11:24:32.000Z</time>
      </trkpt>
      <trkpt lat="45.21698" lon="5.73518">
        <ele>898.20001220703</ele>
        <time>2013-11-27T11:24:39.000Z</time>
      </trkpt>
      <trkpt lat="45.21697" lon="5.73517">
        <ele>898.40002441406</ele>
        <time>2013-11-27T11:24:40.000Z</time>
      </trkpt>
      <trkpt lat="45.21689" lon="5.73512">
        <ele>897</ele>
        <time>2013-11-27T11:24:47.000Z</time>
      </trkpt>
      <trkpt lat="45.21683" lon="5.73508">
        <ele>896</ele>
        <time>2013-11-27T11:24:52.000Z</time>
      </trkpt>
      <trkpt lat="45.21676" lon="5.73502">
        <ele>895.20001220703</ele>
        <time>2013-11-27T11:24:57.000Z</time>
      </trkpt>
      <trkpt lat="45.21675" lon="5.73496">
        <ele>897.40002441406</ele>
        <time>2013-11-27T11:25:00.000Z</time>
      </trkpt>
      <trkpt lat="45.21675" lon="5.73496">
        <ele>897.40002441406</ele>
        <time>2013-11-27T11:25:00.000Z</time>
      </trkpt>
      <trkpt lat="45.21673" lon="5.73487">
        <ele>900</ele>
        <time>2013-11-27T11:26:09.000Z</time>
      </trkpt>
      <trkpt lat="45.21671" lon="5.73477">
        <ele>903</ele>
        <time>2013-11-27T11:26:13.000Z</time>
      </trkpt>
      <trkpt lat="45.21665" lon="5.73454">
        <ele>909.59997558594</ele>
        <time>2013-11-27T11:26:18.000Z</time>
      </trkpt>
      <trkpt lat="45.21655" lon="5.73423">
        <ele>916.20001220703</ele>
        <time>2013-11-27T11:26:25.000Z</time>
      </trkpt>
      <trkpt lat="45.21643" lon="5.73405">
        <ele>916.40002441406</ele>
        <time>2013-11-27T11:26:30.000Z</time>
      </trkpt>
      <trkpt lat="45.21628" lon="5.73391">
        <ele>912.40002441406</ele>
        <time>2013-11-27T11:26:35.000Z</time>
      </trkpt>
      <trkpt lat="45.21613" lon="5.7338">
        <ele>906.59997558594</ele>
        <time>2013-11-27T11:26:40.000Z</time>
      </trkpt>
      <trkpt lat="45.216" lon="5.73365">
        <ele>903.79998779297</ele>
        <time>2013-11-27T11:26:44.000Z</time>
      </trkpt>
      <trkpt lat="45.21587" lon="5.73346">
        <ele>901.59997558594</ele>
        <time>2013-11-27T11:26:49.000Z</time>
      </trkpt>
      <trkpt lat="45.21574" lon="5.73337">
        <ele>894.59997558594</ele>
        <time>2013-11-27T11:26:53.000Z</time>
      </trkpt>
      <trkpt lat="45.21558" lon="5.73328">
        <ele>886.40002441406</ele>
        <time>2013-11-27T11:26:58.000Z</time>
      </trkpt>
      <trkpt lat="45.21541" lon="5.73324">
        <ele>876</ele>
        <time>2013-11-27T11:27:03.000Z</time>
      </trkpt>
      <trkpt lat="45.21524" lon="5.73321">
        <ele>865</ele>
        <time>2013-11-27T11:27:08.000Z</time>
      </trkpt>
      <trkpt lat="45.21516" lon="5.73316">
        <ele>861.40002441406</ele>
        <time>2013-11-27T11:27:11.000Z</time>
      </trkpt>
      <trkpt lat="45.21512" lon="5.73296">
        <ele>869.40002441406</ele>
        <time>2013-11-27T11:27:16.000Z</time>
      </trkpt>
      <trkpt lat="45.21511" lon="5.73278">
        <ele>879.40002441406</ele>
        <time>2013-11-27T11:27:21.000Z</time>
      </trkpt>
      <trkpt lat="45.21511" lon="5.73271">
        <ele>883.59997558594</ele>
        <time>2013-11-27T11:27:23.000Z</time>
      </trkpt>
      <trkpt lat="45.21502" lon="5.73255">
        <ele>886.40002441406</ele>
        <time>2013-11-27T11:27:28.000Z</time>
      </trkpt>
      <trkpt lat="45.2149" lon="5.73241">
        <ele>883.40002441406</ele>
        <time>2013-11-27T11:27:33.000Z</time>
      </trkpt>
      <trkpt lat="45.21477" lon="5.73225">
        <ele>878.40002441406</ele>
        <time>2013-11-27T11:27:38.000Z</time>
      </trkpt>
      <trkpt lat="45.21478" lon="5.73204">
        <ele>886.79998779297</ele>
        <time>2013-11-27T11:27:43.000Z</time>
      </trkpt>
      <trkpt lat="45.21475" lon="5.7319">
        <ele>890.59997558594</ele>
        <time>2013-11-27T11:27:48.000Z</time>
      </trkpt>
      <trkpt lat="45.21466" lon="5.7318">
        <ele>888.20001220703</ele>
        <time>2013-11-27T11:27:52.000Z</time>
      </trkpt>
      <trkpt lat="45.21457" lon="5.73166">
        <ele>887.20001220703</ele>
        <time>2013-11-27T11:27:56.000Z</time>
      </trkpt>
      <trkpt lat="45.21445" lon="5.73163">
        <ele>879.40002441406</ele>
        <time>2013-11-27T11:28:00.000Z</time>
      </trkpt>
      <trkpt lat="45.21442" lon="5.73161">
        <ele>877.59997558594</ele>
        <time>2013-11-27T11:28:01.000Z</time>
      </trkpt>
      <trkpt lat="45.21424" lon="5.73151">
        <ele>868.59997558594</ele>
        <time>2013-11-27T11:28:07.000Z</time>
      </trkpt>
      <trkpt lat="45.21421" lon="5.7315">
        <ele>867.20001220703</ele>
        <time>2013-11-27T11:28:08.000Z</time>
      </trkpt>
      <trkpt lat="45.2141" lon="5.73133">
        <ele>867</ele>
        <time>2013-11-27T11:28:13.000Z</time>
      </trkpt>
      <trkpt lat="45.21395" lon="5.73114">
        <ele>865</ele>
        <time>2013-11-27T11:28:19.000Z</time>
      </trkpt>
      <trkpt lat="45.21384" lon="5.73097">
        <ele>863.79998779297</ele>
        <time>2013-11-27T11:28:24.000Z</time>
      </trkpt>
      <trkpt lat="45.21371" lon="5.73076">
        <ele>862.40002441406</ele>
        <time>2013-11-27T11:28:30.000Z</time>
      </trkpt>
      <trkpt lat="45.2136" lon="5.73065">
        <ele>857</ele>
        <time>2013-11-27T11:28:35.000Z</time>
      </trkpt>
      <trkpt lat="45.21355" lon="5.73059">
        <ele>854.79998779297</ele>
        <time>2013-11-27T11:28:38.000Z</time>
      </trkpt>
      <trkpt lat="45.21344" lon="5.73041">
        <ele>850.40002441406</ele>
        <time>2013-11-27T11:28:44.000Z</time>
      </trkpt>
      <trkpt lat="45.21335" lon="5.7303">
        <ele>845.79998779297</ele>
        <time>2013-11-27T11:28:49.000Z</time>
      </trkpt>
      <trkpt lat="45.21327" lon="5.73019">
        <ele>843.20001220703</ele>
        <time>2013-11-27T11:28:53.000Z</time>
      </trkpt>
      <trkpt lat="45.21315" lon="5.73001">
        <ele>840.79998779297</ele>
        <time>2013-11-27T11:28:59.000Z</time>
      </trkpt>
      <trkpt lat="45.2131" lon="5.72992">
        <ele>837.79998779297</ele>
        <time>2013-11-27T11:29:02.000Z</time>
      </trkpt>
      <trkpt lat="45.213" lon="5.72984">
        <ele>832.59997558594</ele>
        <time>2013-11-27T11:29:06.000Z</time>
      </trkpt>
      <trkpt lat="45.2129" lon="5.72972">
        <ele>827.20001220703</ele>
        <time>2013-11-27T11:29:11.000Z</time>
      </trkpt>
      <trkpt lat="45.21277" lon="5.72958">
        <ele>820.59997558594</ele>
        <time>2013-11-27T11:29:17.000Z</time>
      </trkpt>
      <trkpt lat="45.21268" lon="5.72955">
        <ele>816.20001220703</ele>
        <time>2013-11-27T11:29:21.000Z</time>
      </trkpt>
      <trkpt lat="45.21255" lon="5.72944">
        <ele>810.59997558594</ele>
        <time>2013-11-27T11:29:26.000Z</time>
      </trkpt>
      <trkpt lat="45.21248" lon="5.72944">
        <ele>807.40002441406</ele>
        <time>2013-11-27T11:29:29.000Z</time>
      </trkpt>
      <trkpt lat="45.21241" lon="5.72942">
        <ele>806</ele>
        <time>2013-11-27T11:29:31.000Z</time>
      </trkpt>
      <trkpt lat="45.21228" lon="5.7293">
        <ele>803.79998779297</ele>
        <time>2013-11-27T11:29:36.000Z</time>
      </trkpt>
      <trkpt lat="45.21217" lon="5.72924">
        <ele>802.40002441406</ele>
        <time>2013-11-27T11:29:41.000Z</time>
      </trkpt>
      <trkpt lat="45.21215" lon="5.72922">
        <ele>802.20001220703</ele>
        <time>2013-11-27T11:29:42.000Z</time>
      </trkpt>
      <trkpt lat="45.21213" lon="5.72933">
        <ele>800.40002441406</ele>
        <time>2013-11-27T11:29:46.000Z</time>
      </trkpt>
      <trkpt lat="45.2122" lon="5.72948">
        <ele>799.79998779297</ele>
        <time>2013-11-27T11:29:51.000Z</time>
      </trkpt>
      <trkpt lat="45.21215" lon="5.72949">
        <ele>798.40002441406</ele>
        <time>2013-11-27T11:29:55.000Z</time>
      </trkpt>
      <trkpt lat="45.2121" lon="5.72942">
        <ele>798.20001220703</ele>
        <time>2013-11-27T11:29:57.000Z</time>
      </trkpt>
      <trkpt lat="45.21194" lon="5.72919">
        <ele>799</ele>
        <time>2013-11-27T11:30:04.000Z</time>
      </trkpt>
      <trkpt lat="45.21175" lon="5.72904">
        <ele>796.59997558594</ele>
        <time>2013-11-27T11:30:10.000Z</time>
      </trkpt>
      <trkpt lat="45.21154" lon="5.72896">
        <ele>792.79998779297</ele>
        <time>2013-11-27T11:30:16.000Z</time>
      </trkpt>
      <trkpt lat="45.2114" lon="5.72891">
        <ele>789.79998779297</ele>
        <time>2013-11-27T11:30:21.000Z</time>
      </trkpt>
      <trkpt lat="45.21127" lon="5.72886">
        <ele>787.40002441406</ele>
        <time>2013-11-27T11:30:25.000Z</time>
      </trkpt>
      <trkpt lat="45.21112" lon="5.72872">
        <ele>785.79998779297</ele>
        <time>2013-11-27T11:30:30.000Z</time>
      </trkpt>
      <trkpt lat="45.211" lon="5.72858">
        <ele>785</ele>
        <time>2013-11-27T11:30:35.000Z</time>
      </trkpt>
      <trkpt lat="45.2109" lon="5.72848">
        <ele>784.79998779297</ele>
        <time>2013-11-27T11:30:39.000Z</time>
      </trkpt>
      <trkpt lat="45.21075" lon="5.72825">
        <ele>784</ele>
        <time>2013-11-27T11:30:46.000Z</time>
      </trkpt>
      <trkpt lat="45.21068" lon="5.72805">
        <ele>781.59997558594</ele>
        <time>2013-11-27T11:30:51.000Z</time>
      </trkpt>
      <trkpt lat="45.21064" lon="5.72788">
        <ele>780</ele>
        <time>2013-11-27T11:30:56.000Z</time>
      </trkpt>
      <trkpt lat="45.21056" lon="5.72761">
        <ele>776.79998779297</ele>
        <time>2013-11-27T11:31:03.000Z</time>
      </trkpt>
      <trkpt lat="45.21055" lon="5.72757">
        <ele>776.40002441406</ele>
        <time>2013-11-27T11:31:04.000Z</time>
      </trkpt>
      <trkpt lat="45.21045" lon="5.7275">
        <ele>773</ele>
        <time>2013-11-27T11:31:09.000Z</time>
      </trkpt>
      <trkpt lat="45.21036" lon="5.72751">
        <ele>770.40002441406</ele>
        <time>2013-11-27T11:31:13.000Z</time>
      </trkpt>
      <trkpt lat="45.21027" lon="5.72747">
        <ele>767</ele>
        <time>2013-11-27T11:31:17.000Z</time>
      </trkpt>
      <trkpt lat="45.21017" lon="5.72745">
        <ele>763.79998779297</ele>
        <time>2013-11-27T11:31:23.000Z</time>
      </trkpt>
      <trkpt lat="45.21015" lon="5.72746">
        <ele>763.40002441406</ele>
        <time>2013-11-27T11:31:24.000Z</time>
      </trkpt>
      <trkpt lat="45.21007" lon="5.72749">
        <ele>762</ele>
        <time>2013-11-27T11:31:30.000Z</time>
      </trkpt>
      <trkpt lat="45.21003" lon="5.72756">
        <ele>761.59997558594</ele>
        <time>2013-11-27T11:31:35.000Z</time>
      </trkpt>
      <trkpt lat="45.20998" lon="5.72756">
        <ele>760.20001220703</ele>
        <time>2013-11-27T11:31:39.000Z</time>
      </trkpt>
      <trkpt lat="45.20998" lon="5.72758">
        <ele>760.20001220703</ele>
        <time>2013-11-27T11:31:40.000Z</time>
      </trkpt>
      <trkpt lat="45.20992" lon="5.72758">
        <ele>758.59997558594</ele>
        <time>2013-11-27T11:31:46.000Z</time>
      </trkpt>
      <trkpt lat="45.20983" lon="5.72745">
        <ele>754</ele>
        <time>2013-11-27T11:31:53.000Z</time>
      </trkpt>
      <trkpt lat="45.20977" lon="5.72738">
        <ele>751</ele>
        <time>2013-11-27T11:31:58.000Z</time>
      </trkpt>
      <trkpt lat="45.20971" lon="5.72731">
        <ele>748.20001220703</ele>
        <time>2013-11-27T11:32:02.000Z</time>
      </trkpt>
      <trkpt lat="45.20963" lon="5.72724">
        <ele>744.59997558594</ele>
        <time>2013-11-27T11:32:06.000Z</time>
      </trkpt>
      <trkpt lat="45.20947" lon="5.72704">
        <ele>738</ele>
        <time>2013-11-27T11:32:13.000Z</time>
      </trkpt>
      <trkpt lat="45.20938" lon="5.72696">
        <ele>734.59997558594</ele>
        <time>2013-11-27T11:32:17.000Z</time>
      </trkpt>
      <trkpt lat="45.20935" lon="5.72693">
        <ele>733.59997558594</ele>
        <time>2013-11-27T11:32:18.000Z</time>
      </trkpt>
      <trkpt lat="45.20927" lon="5.72686">
        <ele>731.20001220703</ele>
        <time>2013-11-27T11:32:21.000Z</time>
      </trkpt>
      <trkpt lat="45.20915" lon="5.72687">
        <ele>728.79998779297</ele>
        <time>2013-11-27T11:32:26.000Z</time>
      </trkpt>
      <trkpt lat="45.2091" lon="5.7269">
        <ele>728</ele>
        <time>2013-11-27T11:32:28.000Z</time>
      </trkpt>
      <trkpt lat="45.209" lon="5.72689">
        <ele>725.59997558594</ele>
        <time>2013-11-27T11:32:32.000Z</time>
      </trkpt>
      <trkpt lat="45.20889" lon="5.72693">
        <ele>723.20001220703</ele>
        <time>2013-11-27T11:32:36.000Z</time>
      </trkpt>
      <trkpt lat="45.20873" lon="5.72698">
        <ele>720.20001220703</ele>
        <time>2013-11-27T11:32:41.000Z</time>
      </trkpt>
      <trkpt lat="45.20855" lon="5.72703">
        <ele>716.40002441406</ele>
        <time>2013-11-27T11:32:47.000Z</time>
      </trkpt>
      <trkpt lat="45.20843" lon="5.72704">
        <ele>713.79998779297</ele>
        <time>2013-11-27T11:32:51.000Z</time>
      </trkpt>
      <trkpt lat="45.20842" lon="5.72692">
        <ele>712</ele>
        <time>2013-11-27T11:32:55.000Z</time>
      </trkpt>
      <trkpt lat="45.2084" lon="5.72671">
        <ele>709</ele>
        <time>2013-11-27T11:33:01.000Z</time>
      </trkpt>
      <trkpt lat="45.20835" lon="5.72661">
        <ele>706.20001220703</ele>
        <time>2013-11-27T11:33:04.000Z</time>
      </trkpt>
      <trkpt lat="45.20825" lon="5.72669">
        <ele>704.40002441406</ele>
        <time>2013-11-27T11:33:08.000Z</time>
      </trkpt>
      <trkpt lat="45.20814" lon="5.72674">
        <ele>701.20001220703</ele>
        <time>2013-11-27T11:33:12.000Z</time>
      </trkpt>
      <trkpt lat="45.20813" lon="5.72672">
        <ele>700.79998779297</ele>
        <time>2013-11-27T11:33:13.000Z</time>
      </trkpt>
      <trkpt lat="45.20812" lon="5.72648">
        <ele>695.79998779297</ele>
        <time>2013-11-27T11:33:19.000Z</time>
      </trkpt>
      <trkpt lat="45.20806" lon="5.72634">
        <ele>690.79998779297</ele>
        <time>2013-11-27T11:33:23.000Z</time>
      </trkpt>
      <trkpt lat="45.20804" lon="5.7263">
        <ele>689.40002441406</ele>
        <time>2013-11-27T11:33:25.000Z</time>
      </trkpt>
      <trkpt lat="45.20798" lon="5.72638">
        <ele>689</ele>
        <time>2013-11-27T11:33:30.000Z</time>
      </trkpt>
      <trkpt lat="45.20785" lon="5.72651">
        <ele>687.79998779297</ele>
        <time>2013-11-27T11:33:36.000Z</time>
      </trkpt>
      <trkpt lat="45.20777" lon="5.7265">
        <ele>685</ele>
        <time>2013-11-27T11:33:40.000Z</time>
      </trkpt>
      <trkpt lat="45.20779" lon="5.72637">
        <ele>683</ele>
        <time>2013-11-27T11:33:44.000Z</time>
      </trkpt>
      <trkpt lat="45.20779" lon="5.72623">
        <ele>680.40002441406</ele>
        <time>2013-11-27T11:33:48.000Z</time>
      </trkpt>
      <trkpt lat="45.20773" lon="5.72622">
        <ele>678.20001220703</ele>
        <time>2013-11-27T11:33:51.000Z</time>
      </trkpt>
      <trkpt lat="45.2076" lon="5.72627">
        <ele>675.40002441406</ele>
        <time>2013-11-27T11:33:55.000Z</time>
      </trkpt>
      <trkpt lat="45.20751" lon="5.7263">
        <ele>673</ele>
        <time>2013-11-27T11:33:58.000Z</time>
      </trkpt>
      <trkpt lat="45.20745" lon="5.72611">
        <ele>668.59997558594</ele>
        <time>2013-11-27T11:34:03.000Z</time>
      </trkpt>
      <trkpt lat="45.20741" lon="5.726">
        <ele>665.79998779297</ele>
        <time>2013-11-27T11:34:06.000Z</time>
      </trkpt>
      <trkpt lat="45.20728" lon="5.72591">
        <ele>661.59997558594</ele>
        <time>2013-11-27T11:34:11.000Z</time>
      </trkpt>
      <trkpt lat="45.20723" lon="5.72591">
        <ele>660.40002441406</ele>
        <time>2013-11-27T11:34:13.000Z</time>
      </trkpt>
      <trkpt lat="45.20709" lon="5.72582">
        <ele>656.59997558594</ele>
        <time>2013-11-27T11:34:18.000Z</time>
      </trkpt>
      <trkpt lat="45.20698" lon="5.72575">
        <ele>653.59997558594</ele>
        <time>2013-11-27T11:34:22.000Z</time>
      </trkpt>
      <trkpt lat="45.20688" lon="5.72579">
        <ele>652.20001220703</ele>
        <time>2013-11-27T11:34:25.000Z</time>
      </trkpt>
      <trkpt lat="45.2067" lon="5.72591">
        <ele>649</ele>
        <time>2013-11-27T11:34:31.000Z</time>
      </trkpt>
      <trkpt lat="45.20657" lon="5.72606">
        <ele>647.20001220703</ele>
        <time>2013-11-27T11:34:36.000Z</time>
      </trkpt>
      <trkpt lat="45.20644" lon="5.72611">
        <ele>644.59997558594</ele>
        <time>2013-11-27T11:34:40.000Z</time>
      </trkpt>
      <trkpt lat="45.20627" lon="5.7261">
        <ele>641</ele>
        <time>2013-11-27T11:34:45.000Z</time>
      </trkpt>
      <trkpt lat="45.20612" lon="5.72601">
        <ele>638.79998779297</ele>
        <time>2013-11-27T11:34:49.000Z</time>
      </trkpt>
      <trkpt lat="45.20599" lon="5.72588">
        <ele>637.59997558594</ele>
        <time>2013-11-27T11:34:53.000Z</time>
      </trkpt>
      <trkpt lat="45.20584" lon="5.72575">
        <ele>636.20001220703</ele>
        <time>2013-11-27T11:34:58.000Z</time>
      </trkpt>
      <trkpt lat="45.20569" lon="5.72567">
        <ele>634.20001220703</ele>
        <time>2013-11-27T11:35:02.000Z</time>
      </trkpt>
      <trkpt lat="45.20553" lon="5.72565">
        <ele>631.59997558594</ele>
        <time>2013-11-27T11:35:07.000Z</time>
      </trkpt>
      <trkpt lat="45.20538" lon="5.72571">
        <ele>628.59997558594</ele>
        <time>2013-11-27T11:35:12.000Z</time>
      </trkpt>
      <trkpt lat="45.20526" lon="5.72579">
        <ele>625.40002441406</ele>
        <time>2013-11-27T11:35:16.000Z</time>
      </trkpt>
      <trkpt lat="45.20507" lon="5.72583">
        <ele>621.40002441406</ele>
        <time>2013-11-27T11:35:21.000Z</time>
      </trkpt>
      <trkpt lat="45.20492" lon="5.72574">
        <ele>619.79998779297</ele>
        <time>2013-11-27T11:35:26.000Z</time>
      </trkpt>
      <trkpt lat="45.20478" lon="5.72561">
        <ele>619.20001220703</ele>
        <time>2013-11-27T11:35:31.000Z</time>
      </trkpt>
      <trkpt lat="45.20464" lon="5.72546">
        <ele>619.20001220703</ele>
        <time>2013-11-27T11:35:36.000Z</time>
      </trkpt>
      <trkpt lat="45.20454" lon="5.72527">
        <ele>620.79998779297</ele>
        <time>2013-11-27T11:35:41.000Z</time>
      </trkpt>
      <trkpt lat="45.20443" lon="5.72526">
        <ele>618.59997558594</ele>
        <time>2013-11-27T11:35:45.000Z</time>
      </trkpt>
      <trkpt lat="45.20442" lon="5.72538">
        <ele>616.20001220703</ele>
        <time>2013-11-27T11:35:48.000Z</time>
      </trkpt>
      <trkpt lat="45.20445" lon="5.72547">
        <ele>615</ele>
        <time>2013-11-27T11:35:50.000Z</time>
      </trkpt>
      <trkpt lat="45.20457" lon="5.7257">
        <ele>612.79998779297</ele>
        <time>2013-11-27T11:35:56.000Z</time>
      </trkpt>
      <trkpt lat="45.20468" lon="5.7259">
        <ele>610.40002441406</ele>
        <time>2013-11-27T11:36:01.000Z</time>
      </trkpt>
      <trkpt lat="45.20478" lon="5.72609">
        <ele>605.59997558594</ele>
        <time>2013-11-27T11:36:06.000Z</time>
      </trkpt>
      <trkpt lat="45.20492" lon="5.72624">
        <ele>604.40002441406</ele>
        <time>2013-11-27T11:36:11.000Z</time>
      </trkpt>
      <trkpt lat="45.20509" lon="5.72632">
        <ele>606.20001220703</ele>
        <time>2013-11-27T11:36:16.000Z</time>
      </trkpt>
      <trkpt lat="45.20522" lon="5.72641">
        <ele>607.40002441406</ele>
        <time>2013-11-27T11:36:20.000Z</time>
      </trkpt>
      <trkpt lat="45.20535" lon="5.72658">
        <ele>607</ele>
        <time>2013-11-27T11:36:25.000Z</time>
      </trkpt>
      <trkpt lat="45.2055" lon="5.72679">
        <ele>605.79998779297</ele>
        <time>2013-11-27T11:36:31.000Z</time>
      </trkpt>
      <trkpt lat="45.20571" lon="5.72701">
        <ele>606.59997558594</ele>
        <time>2013-11-27T11:36:38.000Z</time>
      </trkpt>
      <trkpt lat="45.20583" lon="5.72706">
        <ele>610.20001220703</ele>
        <time>2013-11-27T11:36:42.000Z</time>
      </trkpt>
      <trkpt lat="45.20582" lon="5.72718">
        <ele>605.79998779297</ele>
        <time>2013-11-27T11:36:46.000Z</time>
      </trkpt>
      <trkpt lat="45.20574" lon="5.72715">
        <ele>603</ele>
        <time>2013-11-27T11:36:48.000Z</time>
      </trkpt>
      <trkpt lat="45.2055" lon="5.72701">
        <ele>597</ele>
        <time>2013-11-27T11:36:55.000Z</time>
      </trkpt>
      <trkpt lat="45.20533" lon="5.72691">
        <ele>593.59997558594</ele>
        <time>2013-11-27T11:37:00.000Z</time>
      </trkpt>
      <trkpt lat="45.20516" lon="5.7268">
        <ele>591.40002441406</ele>
        <time>2013-11-27T11:37:05.000Z</time>
      </trkpt>
      <trkpt lat="45.20496" lon="5.72671">
        <ele>588.40002441406</ele>
        <time>2013-11-27T11:37:11.000Z</time>
      </trkpt>
      <trkpt lat="45.20477" lon="5.72663">
        <ele>586.20001220703</ele>
        <time>2013-11-27T11:37:17.000Z</time>
      </trkpt>
      <trkpt lat="45.20457" lon="5.72655">
        <ele>583.20001220703</ele>
        <time>2013-11-27T11:37:23.000Z</time>
      </trkpt>
      <trkpt lat="45.20439" lon="5.72651">
        <ele>580</ele>
        <time>2013-11-27T11:37:28.000Z</time>
      </trkpt>
      <trkpt lat="45.20425" lon="5.72634">
        <ele>582.59997558594</ele>
        <time>2013-11-27T11:37:33.000Z</time>
      </trkpt>
      <trkpt lat="45.20423" lon="5.72632">
        <ele>583</ele>
        <time>2013-11-27T11:37:34.000Z</time>
      </trkpt>
      <trkpt lat="45.20415" lon="5.72637">
        <ele>578.20001220703</ele>
        <time>2013-11-27T11:37:38.000Z</time>
      </trkpt>
      <trkpt lat="45.2042" lon="5.72649">
        <ele>575</ele>
        <time>2013-11-27T11:37:41.000Z</time>
      </trkpt>
      <trkpt lat="45.20433" lon="5.72666">
        <ele>572</ele>
        <time>2013-11-27T11:37:46.000Z</time>
      </trkpt>
      <trkpt lat="45.20448" lon="5.72679">
        <ele>569.79998779297</ele>
        <time>2013-11-27T11:37:51.000Z</time>
      </trkpt>
      <trkpt lat="45.20465" lon="5.72688">
        <ele>570.59997558594</ele>
        <time>2013-11-27T11:37:56.000Z</time>
      </trkpt>
      <trkpt lat="45.20479" lon="5.72701">
        <ele>568</ele>
        <time>2013-11-27T11:38:01.000Z</time>
      </trkpt>
      <trkpt lat="45.20494" lon="5.72713">
        <ele>566.79998779297</ele>
        <time>2013-11-27T11:38:06.000Z</time>
      </trkpt>
      <trkpt lat="45.20512" lon="5.72729">
        <ele>566.59997558594</ele>
        <time>2013-11-27T11:38:12.000Z</time>
      </trkpt>
      <trkpt lat="45.20527" lon="5.72743">
        <ele>567.79998779297</ele>
        <time>2013-11-27T11:38:17.000Z</time>
      </trkpt>
      <trkpt lat="45.20529" lon="5.72746">
        <ele>567.40002441406</ele>
        <time>2013-11-27T11:38:18.000Z</time>
      </trkpt>
      <trkpt lat="45.20523" lon="5.72752">
        <ele>562.20001220703</ele>
        <time>2013-11-27T11:38:21.000Z</time>
      </trkpt>
      <trkpt lat="45.2051" lon="5.72743">
        <ele>559</ele>
        <time>2013-11-27T11:38:25.000Z</time>
      </trkpt>
      <trkpt lat="45.20487" lon="5.72728">
        <ele>556.79998779297</ele>
        <time>2013-11-27T11:38:32.000Z</time>
      </trkpt>
      <trkpt lat="45.20469" lon="5.72724">
        <ele>552.79998779297</ele>
        <time>2013-11-27T11:38:37.000Z</time>
      </trkpt>
      <trkpt lat="45.20448" lon="5.7272">
        <ele>548</ele>
        <time>2013-11-27T11:38:43.000Z</time>
      </trkpt>
      <trkpt lat="45.20427" lon="5.72715">
        <ele>544.20001220703</ele>
        <time>2013-11-27T11:38:49.000Z</time>
      </trkpt>
      <trkpt lat="45.20412" lon="5.72703">
        <ele>545</ele>
        <time>2013-11-27T11:38:54.000Z</time>
      </trkpt>
      <trkpt lat="45.20397" lon="5.72687">
        <ele>546.79998779297</ele>
        <time>2013-11-27T11:38:59.000Z</time>
      </trkpt>
      <trkpt lat="45.20385" lon="5.72673">
        <ele>547.79998779297</ele>
        <time>2013-11-27T11:39:03.000Z</time>
      </trkpt>
      <trkpt lat="45.20372" lon="5.72658">
        <ele>548.20001220703</ele>
        <time>2013-11-27T11:39:08.000Z</time>
      </trkpt>
      <trkpt lat="45.2036" lon="5.72646">
        <ele>546.79998779297</ele>
        <time>2013-11-27T11:39:12.000Z</time>
      </trkpt>
      <trkpt lat="45.20344" lon="5.72637">
        <ele>542.40002441406</ele>
        <time>2013-11-27T11:39:17.000Z</time>
      </trkpt>
      <trkpt lat="45.20332" lon="5.72626">
        <ele>540.59997558594</ele>
        <time>2013-11-27T11:39:21.000Z</time>
      </trkpt>
      <trkpt lat="45.20317" lon="5.72618">
        <ele>539.40002441406</ele>
        <time>2013-11-27T11:39:26.000Z</time>
      </trkpt>
      <trkpt lat="45.20299" lon="5.72613">
        <ele>535.59997558594</ele>
        <time>2013-11-27T11:39:32.000Z</time>
      </trkpt>
      <trkpt lat="45.20283" lon="5.72611">
        <ele>531.79998779297</ele>
        <time>2013-11-27T11:39:37.000Z</time>
      </trkpt>
      <trkpt lat="45.20266" lon="5.72616">
        <ele>524.40002441406</ele>
        <time>2013-11-27T11:39:42.000Z</time>
      </trkpt>
      <trkpt lat="45.20249" lon="5.72615">
        <ele>519.79998779297</ele>
        <time>2013-11-27T11:39:47.000Z</time>
      </trkpt>
      <trkpt lat="45.20232" lon="5.7261">
        <ele>515.79998779297</ele>
        <time>2013-11-27T11:39:52.000Z</time>
      </trkpt>
      <trkpt lat="45.20216" lon="5.726">
        <ele>514.40002441406</ele>
        <time>2013-11-27T11:39:57.000Z</time>
      </trkpt>
      <trkpt lat="45.20201" lon="5.7259">
        <ele>513</ele>
        <time>2013-11-27T11:40:02.000Z</time>
      </trkpt>
      <trkpt lat="45.20182" lon="5.72581">
        <ele>509.20001220703</ele>
        <time>2013-11-27T11:40:08.000Z</time>
      </trkpt>
      <trkpt lat="45.20161" lon="5.72568">
        <ele>504.79998779297</ele>
        <time>2013-11-27T11:40:14.000Z</time>
      </trkpt>
      <trkpt lat="45.20143" lon="5.72562">
        <ele>501.20001220703</ele>
        <time>2013-11-27T11:40:19.000Z</time>
      </trkpt>
      <trkpt lat="45.20127" lon="5.72555">
        <ele>497.79998779297</ele>
        <time>2013-11-27T11:40:24.000Z</time>
      </trkpt>
      <trkpt lat="45.20115" lon="5.72551">
        <ele>494.60000610352</ele>
        <time>2013-11-27T11:40:28.000Z</time>
      </trkpt>
      <trkpt lat="45.20104" lon="5.72549">
        <ele>491.79998779297</ele>
        <time>2013-11-27T11:40:32.000Z</time>
      </trkpt>
      <trkpt lat="45.20082" lon="5.7255">
        <ele>485.60000610352</ele>
        <time>2013-11-27T11:40:38.000Z</time>
      </trkpt>
      <trkpt lat="45.20072" lon="5.72542">
        <ele>485.79998779297</ele>
        <time>2013-11-27T11:40:41.000Z</time>
      </trkpt>
      <trkpt lat="45.20068" lon="5.72524">
        <ele>487.39999389648</ele>
        <time>2013-11-27T11:40:45.000Z</time>
      </trkpt>
      <trkpt lat="45.20072" lon="5.72502">
        <ele>490</ele>
        <time>2013-11-27T11:40:50.000Z</time>
      </trkpt>
      <trkpt lat="45.20074" lon="5.72475">
        <ele>487</ele>
        <time>2013-11-27T11:40:56.000Z</time>
      </trkpt>
      <trkpt lat="45.20071" lon="5.72454">
        <ele>483.60000610352</ele>
        <time>2013-11-27T11:41:01.000Z</time>
      </trkpt>
      <trkpt lat="45.20062" lon="5.72441">
        <ele>480.20001220703</ele>
        <time>2013-11-27T11:41:05.000Z</time>
      </trkpt>
      <trkpt lat="45.20045" lon="5.72437">
        <ele>476.60000610352</ele>
        <time>2013-11-27T11:41:10.000Z</time>
      </trkpt>
      <trkpt lat="45.2002" lon="5.72437">
        <ele>472</ele>
        <time>2013-11-27T11:41:17.000Z</time>
      </trkpt>
      <trkpt lat="45.20003" lon="5.72437">
        <ele>468.79998779297</ele>
        <time>2013-11-27T11:41:22.000Z</time>
      </trkpt>
      <trkpt lat="45.19978" lon="5.72435">
        <ele>469.20001220703</ele>
        <time>2013-11-27T11:41:29.000Z</time>
      </trkpt>
      <trkpt lat="45.1996" lon="5.72435">
        <ele>470.20001220703</ele>
        <time>2013-11-27T11:41:34.000Z</time>
      </trkpt>
      <trkpt lat="45.19942" lon="5.72435">
        <ele>471.39999389648</ele>
        <time>2013-11-27T11:41:39.000Z</time>
      </trkpt>
      <trkpt lat="45.19928" lon="5.72436">
        <ele>472.60000610352</ele>
        <time>2013-11-27T11:41:43.000Z</time>
      </trkpt>
      <trkpt lat="45.19917" lon="5.72441">
        <ele>474</ele>
        <time>2013-11-27T11:41:47.000Z</time>
      </trkpt>
      <trkpt lat="45.19902" lon="5.72447">
        <ele>471.20001220703</ele>
        <time>2013-11-27T11:41:53.000Z</time>
      </trkpt>
      <trkpt lat="45.19889" lon="5.72454">
        <ele>468.79998779297</ele>
        <time>2013-11-27T11:41:59.000Z</time>
      </trkpt>
      <trkpt lat="45.19882" lon="5.72473">
        <ele>469.79998779297</ele>
        <time>2013-11-27T11:42:05.000Z</time>
      </trkpt>
      <trkpt lat="45.19873" lon="5.72483">
        <ele>469</ele>
        <time>2013-11-27T11:42:09.000Z</time>
      </trkpt>
      <trkpt lat="45.1986" lon="5.72497">
        <ele>467.39999389648</ele>
        <time>2013-11-27T11:42:14.000Z</time>
      </trkpt>
      <trkpt lat="45.19859" lon="5.725">
        <ele>467.39999389648</ele>
        <time>2013-11-27T11:42:15.000Z</time>
      </trkpt>
      <trkpt lat="45.1986" lon="5.72525">
        <ele>466</ele>
        <time>2013-11-27T11:42:20.000Z</time>
      </trkpt>
      <trkpt lat="45.19862" lon="5.72549">
        <ele>464.60000610352</ele>
        <time>2013-11-27T11:42:25.000Z</time>
      </trkpt>
      <trkpt lat="45.19862" lon="5.72554">
        <ele>464.39999389648</ele>
        <time>2013-11-27T11:42:26.000Z</time>
      </trkpt>
      <trkpt lat="45.19855" lon="5.72557">
        <ele>462.20001220703</ele>
        <time>2013-11-27T11:42:30.000Z</time>
      </trkpt>
      <trkpt lat="45.19853" lon="5.7255">
        <ele>462.39999389648</ele>
        <time>2013-11-27T11:42:32.000Z</time>
      </trkpt>
      <trkpt lat="45.19853" lon="5.72518">
        <ele>464.39999389648</ele>
        <time>2013-11-27T11:42:39.000Z</time>
      </trkpt>
      <trkpt lat="45.19849" lon="5.7249">
        <ele>463.20001220703</ele>
        <time>2013-11-27T11:42:45.000Z</time>
      </trkpt>
      <trkpt lat="45.19849" lon="5.72466">
        <ele>459.79998779297</ele>
        <time>2013-11-27T11:42:50.000Z</time>
      </trkpt>
      <trkpt lat="45.19847" lon="5.72451">
        <ele>457.20001220703</ele>
        <time>2013-11-27T11:42:53.000Z</time>
      </trkpt>
      <trkpt lat="45.19837" lon="5.72448">
        <ele>454</ele>
        <time>2013-11-27T11:42:57.000Z</time>
      </trkpt>
      <trkpt lat="45.19832" lon="5.72459">
        <ele>453.79998779297</ele>
        <time>2013-11-27T11:43:00.000Z</time>
      </trkpt>
      <trkpt lat="45.19831" lon="5.72464">
        <ele>453.79998779297</ele>
        <time>2013-11-27T11:43:01.000Z</time>
      </trkpt>
      <trkpt lat="45.19826" lon="5.72498">
        <ele>455</ele>
        <time>2013-11-27T11:43:08.000Z</time>
      </trkpt>
      <trkpt lat="45.19822" lon="5.72528">
        <ele>451.20001220703</ele>
        <time>2013-11-27T11:43:14.000Z</time>
      </trkpt>
      <trkpt lat="45.19821" lon="5.72551">
        <ele>450</ele>
        <time>2013-11-27T11:43:19.000Z</time>
      </trkpt>
      <trkpt lat="45.19823" lon="5.72576">
        <ele>450.20001220703</ele>
        <time>2013-11-27T11:43:24.000Z</time>
      </trkpt>
      <trkpt lat="45.19825" lon="5.72604">
        <ele>447.79998779297</ele>
        <time>2013-11-27T11:43:30.000Z</time>
      </trkpt>
      <trkpt lat="45.1983" lon="5.72631">
        <ele>445.79998779297</ele>
        <time>2013-11-27T11:43:36.000Z</time>
      </trkpt>
      <trkpt lat="45.19834" lon="5.72647">
        <ele>445.20001220703</ele>
        <time>2013-11-27T11:43:40.000Z</time>
      </trkpt>
      <trkpt lat="45.19845" lon="5.7267">
        <ele>444.20001220703</ele>
        <time>2013-11-27T11:43:46.000Z</time>
      </trkpt>
      <trkpt lat="45.19857" lon="5.72687">
        <ele>441.20001220703</ele>
        <time>2013-11-27T11:43:51.000Z</time>
      </trkpt>
      <trkpt lat="45.1986" lon="5.7269">
        <ele>440.79998779297</ele>
        <time>2013-11-27T11:43:52.000Z</time>
      </trkpt>
      <trkpt lat="45.19858" lon="5.72697">
        <ele>438</ele>
        <time>2013-11-27T11:43:56.000Z</time>
      </trkpt>
      <trkpt lat="45.19856" lon="5.72695">
        <ele>438.20001220703</ele>
        <time>2013-11-27T11:43:57.000Z</time>
      </trkpt>
      <trkpt lat="45.19839" lon="5.72677">
        <ele>440</ele>
        <time>2013-11-27T11:44:03.000Z</time>
      </trkpt>
      <trkpt lat="45.19826" lon="5.72662">
        <ele>439.20001220703</ele>
        <time>2013-11-27T11:44:08.000Z</time>
      </trkpt>
      <trkpt lat="45.19815" lon="5.72653">
        <ele>434.79998779297</ele>
        <time>2013-11-27T11:44:12.000Z</time>
      </trkpt>
      <trkpt lat="45.198" lon="5.72638">
        <ele>429.79998779297</ele>
        <time>2013-11-27T11:44:17.000Z</time>
      </trkpt>
      <trkpt lat="45.19791" lon="5.72622">
        <ele>427.60000610352</ele>
        <time>2013-11-27T11:44:21.000Z</time>
      </trkpt>
      <trkpt lat="45.19787" lon="5.72598">
        <ele>429.60000610352</ele>
        <time>2013-11-27T11:44:26.000Z</time>
      </trkpt>
      <trkpt lat="45.19788" lon="5.72573">
        <ele>432.20001220703</ele>
        <time>2013-11-27T11:44:31.000Z</time>
      </trkpt>
      <trkpt lat="45.19791" lon="5.72545">
        <ele>432.79998779297</ele>
        <time>2013-11-27T11:44:37.000Z</time>
      </trkpt>
      <trkpt lat="45.19792" lon="5.72532">
        <ele>433.20001220703</ele>
        <time>2013-11-27T11:44:40.000Z</time>
      </trkpt>
      <trkpt lat="45.19786" lon="5.72532">
        <ele>429</ele>
        <time>2013-11-27T11:44:44.000Z</time>
      </trkpt>
      <trkpt lat="45.19782" lon="5.72547">
        <ele>427.39999389648</ele>
        <time>2013-11-27T11:44:47.000Z</time>
      </trkpt>
      <trkpt lat="45.19774" lon="5.72585">
        <ele>425.39999389648</ele>
        <time>2013-11-27T11:44:55.000Z</time>
      </trkpt>
      <trkpt lat="45.19773" lon="5.72589">
        <ele>424</ele>
        <time>2013-11-27T11:44:56.000Z</time>
      </trkpt>
      <trkpt lat="45.19763" lon="5.72583">
        <ele>420.60000610352</ele>
        <time>2013-11-27T11:45:00.000Z</time>
      </trkpt>
      <trkpt lat="45.19765" lon="5.72572">
        <ele>420.20001220703</ele>
        <time>2013-11-27T11:45:02.000Z</time>
      </trkpt>
      <trkpt lat="45.19765" lon="5.72538">
        <ele>417.20001220703</ele>
        <time>2013-11-27T11:45:09.000Z</time>
      </trkpt>
      <trkpt lat="45.19774" lon="5.72517">
        <ele>420.39999389648</ele>
        <time>2013-11-27T11:45:14.000Z</time>
      </trkpt>
      <trkpt lat="45.19775" lon="5.72514">
        <ele>421.39999389648</ele>
        <time>2013-11-27T11:45:15.000Z</time>
      </trkpt>
      <trkpt lat="45.1977" lon="5.72511">
        <ele>417.39999389648</ele>
        <time>2013-11-27T11:45:19.000Z</time>
      </trkpt>
      <trkpt lat="45.19767" lon="5.72514">
        <ele>415.79998779297</ele>
        <time>2013-11-27T11:45:20.000Z</time>
      </trkpt>
      <trkpt lat="45.19755" lon="5.72533">
        <ele>410.60000610352</ele>
        <time>2013-11-27T11:45:26.000Z</time>
      </trkpt>
      <trkpt lat="45.19752" lon="5.72546">
        <ele>410</ele>
        <time>2013-11-27T11:45:30.000Z</time>
      </trkpt>
      <trkpt lat="45.19752" lon="5.72568">
        <ele>412.79998779297</ele>
        <time>2013-11-27T11:45:35.000Z</time>
      </trkpt>
      <trkpt lat="45.19753" lon="5.72594">
        <ele>413.39999389648</ele>
        <time>2013-11-27T11:45:41.000Z</time>
      </trkpt>
      <trkpt lat="45.19756" lon="5.72606">
        <ele>413</ele>
        <time>2013-11-27T11:45:44.000Z</time>
      </trkpt>
      <trkpt lat="45.19762" lon="5.7263">
        <ele>411.79998779297</ele>
        <time>2013-11-27T11:45:49.000Z</time>
      </trkpt>
      <trkpt lat="45.19771" lon="5.72655">
        <ele>412</ele>
        <time>2013-11-27T11:45:55.000Z</time>
      </trkpt>
      <trkpt lat="45.19784" lon="5.72673">
        <ele>413.79998779297</ele>
        <time>2013-11-27T11:46:01.000Z</time>
      </trkpt>
      <trkpt lat="45.19798" lon="5.72689">
        <ele>414.39999389648</ele>
        <time>2013-11-27T11:46:07.000Z</time>
      </trkpt>
      <trkpt lat="45.19812" lon="5.72704">
        <ele>416.20001220703</ele>
        <time>2013-11-27T11:46:13.000Z</time>
      </trkpt>
      <trkpt lat="45.19827" lon="5.72718">
        <ele>420</ele>
        <time>2013-11-27T11:46:19.000Z</time>
      </trkpt>
      <trkpt lat="45.19838" lon="5.7274">
        <ele>417.39999389648</ele>
        <time>2013-11-27T11:46:25.000Z</time>
      </trkpt>
      <trkpt lat="45.19845" lon="5.72751">
        <ele>415.60000610352</ele>
        <time>2013-11-27T11:46:29.000Z</time>
      </trkpt>
      <trkpt lat="45.19864" lon="5.72736">
        <ele>425.79998779297</ele>
        <time>2013-11-27T11:46:39.000Z</time>
      </trkpt>
      <trkpt lat="45.19863" lon="5.72747">
        <ele>421.39999389648</ele>
        <time>2013-11-27T11:46:41.000Z</time>
      </trkpt>
      <trkpt lat="45.19863" lon="5.72764">
        <ele>411.60000610352</ele>
        <time>2013-11-27T11:46:45.000Z</time>
      </trkpt>
      <trkpt lat="45.19861" lon="5.72763">
        <ele>411.20001220703</ele>
        <time>2013-11-27T11:46:49.000Z</time>
      </trkpt>
      <trkpt lat="45.19858" lon="5.72765">
        <ele>409.20001220703</ele>
        <time>2013-11-27T11:46:54.000Z</time>
      </trkpt>
      <trkpt lat="45.19855" lon="5.72774">
        <ele>403</ele>
        <time>2013-11-27T11:46:58.000Z</time>
      </trkpt>
      <trkpt lat="45.19854" lon="5.72786">
        <ele>394.39999389648</ele>
        <time>2013-11-27T11:47:19.000Z</time>
      </trkpt>
      <trkpt lat="45.19852" lon="5.72781">
        <ele>397.39999389648</ele>
        <time>2013-11-27T11:47:21.000Z</time>
      </trkpt>
      <trkpt lat="45.19847" lon="5.72776">
        <ele>399.39999389648</ele>
        <time>2013-11-27T11:47:26.000Z</time>
      </trkpt>
      <trkpt lat="45.1985" lon="5.72781">
        <ele>396.39999389648</ele>
        <time>2013-11-27T11:47:30.000Z</time>
      </trkpt>
      <trkpt lat="45.19854" lon="5.72787">
        <ele>393.60000610352</ele>
        <time>2013-11-27T11:47:32.000Z</time>
      </trkpt>
      <trkpt lat="45.19847" lon="5.72782">
        <ele>395</ele>
        <time>2013-11-27T11:47:36.000Z</time>
      </trkpt>
      <trkpt lat="45.19832" lon="5.72769">
        <ele>399.79998779297</ele>
        <time>2013-11-27T11:47:41.000Z</time>
      </trkpt>
      <trkpt lat="45.19816" lon="5.72759">
        <ele>396</ele>
        <time>2013-11-27T11:47:46.000Z</time>
      </trkpt>
      <trkpt lat="45.198" lon="5.72742">
        <ele>394.20001220703</ele>
        <time>2013-11-27T11:47:52.000Z</time>
      </trkpt>
      <trkpt lat="45.19795" lon="5.72737">
        <ele>392.79998779297</ele>
        <time>2013-11-27T11:47:54.000Z</time>
      </trkpt>
      <trkpt lat="45.19791" lon="5.72743">
        <ele>387.60000610352</ele>
        <time>2013-11-27T11:47:58.000Z</time>
      </trkpt>
      <trkpt lat="45.19799" lon="5.72752">
        <ele>388.60000610352</ele>
        <time>2013-11-27T11:48:01.000Z</time>
      </trkpt>
      <trkpt lat="45.19814" lon="5.72774">
        <ele>385.39999389648</ele>
        <time>2013-11-27T11:48:07.000Z</time>
      </trkpt>
      <trkpt lat="45.19827" lon="5.72791">
        <ele>382.39999389648</ele>
        <time>2013-11-27T11:48:12.000Z</time>
      </trkpt>
      <trkpt lat="45.19841" lon="5.72802">
        <ele>380.39999389648</ele>
        <time>2013-11-27T11:48:17.000Z</time>
      </trkpt>
      <trkpt lat="45.19843" lon="5.72804">
        <ele>379.79998779297</ele>
        <time>2013-11-27T11:48:18.000Z</time>
      </trkpt>
      <trkpt lat="45.19841" lon="5.72806">
        <ele>377.79998779297</ele>
        <time>2013-11-27T11:48:21.000Z</time>
      </trkpt>
      <trkpt lat="45.19831" lon="5.728">
        <ele>378.20001220703</ele>
        <time>2013-11-27T11:48:24.000Z</time>
      </trkpt>
      <trkpt lat="45.19809" lon="5.72786">
        <ele>375.20001220703</ele>
        <time>2013-11-27T11:48:31.000Z</time>
      </trkpt>
      <trkpt lat="45.19803" lon="5.72781">
        <ele>375</ele>
        <time>2013-11-27T11:48:33.000Z</time>
      </trkpt>
      <trkpt lat="45.19798" lon="5.72787">
        <ele>368.60000610352</ele>
        <time>2013-11-27T11:48:37.000Z</time>
      </trkpt>
      <trkpt lat="45.19808" lon="5.72796">
        <ele>369</ele>
        <time>2013-11-27T11:48:40.000Z</time>
      </trkpt>
      <trkpt lat="45.19825" lon="5.72812">
        <ele>367.60000610352</ele>
        <time>2013-11-27T11:48:46.000Z</time>
      </trkpt>
      <trkpt lat="45.1984" lon="5.72825">
        <ele>364.79998779297</ele>
        <time>2013-11-27T11:48:51.000Z</time>
      </trkpt>
      <trkpt lat="45.19848" lon="5.72833">
        <ele>362</ele>
        <time>2013-11-27T11:48:54.000Z</time>
      </trkpt>
      <trkpt lat="45.19842" lon="5.72832">
        <ele>360.60000610352</ele>
        <time>2013-11-27T11:48:57.000Z</time>
      </trkpt>
      <trkpt lat="45.19839" lon="5.7283">
        <ele>361</ele>
        <time>2013-11-27T11:48:58.000Z</time>
      </trkpt>
      <trkpt lat="45.19823" lon="5.7282">
        <ele>361.39999389648</ele>
        <time>2013-11-27T11:49:03.000Z</time>
      </trkpt>
      <trkpt lat="45.19818" lon="5.72822">
        <ele>357.60000610352</ele>
        <time>2013-11-27T11:49:07.000Z</time>
      </trkpt>
      <trkpt lat="45.19827" lon="5.7283">
        <ele>356.60000610352</ele>
        <time>2013-11-27T11:49:10.000Z</time>
      </trkpt>
      <trkpt lat="45.19836" lon="5.72839">
        <ele>355</ele>
        <time>2013-11-27T11:49:14.000Z</time>
      </trkpt>
      <trkpt lat="45.19824" lon="5.72834">
        <ele>352.79998779297</ele>
        <time>2013-11-27T11:49:19.000Z</time>
      </trkpt>
      <trkpt lat="45.19808" lon="5.72824">
        <ele>352.39999389648</ele>
        <time>2013-11-27T11:49:24.000Z</time>
      </trkpt>
      <trkpt lat="45.19796" lon="5.72815">
        <ele>351.79998779297</ele>
        <time>2013-11-27T11:49:28.000Z</time>
      </trkpt>
      <trkpt lat="45.19795" lon="5.72821">
        <ele>348.20001220703</ele>
        <time>2013-11-27T11:49:32.000Z</time>
      </trkpt>
      <trkpt lat="45.19806" lon="5.72831">
        <ele>347.60000610352</ele>
        <time>2013-11-27T11:49:36.000Z</time>
      </trkpt>
      <trkpt lat="45.19809" lon="5.72833">
        <ele>347.60000610352</ele>
        <time>2013-11-27T11:49:37.000Z</time>
      </trkpt>
      <trkpt lat="45.19826" lon="5.72847">
        <ele>347.60000610352</ele>
        <time>2013-11-27T11:49:43.000Z</time>
      </trkpt>
      <trkpt lat="45.19827" lon="5.72849">
        <ele>346.79998779297</ele>
        <time>2013-11-27T11:49:44.000Z</time>
      </trkpt>
      <trkpt lat="45.19817" lon="5.72845">
        <ele>345.39999389648</ele>
        <time>2013-11-27T11:49:48.000Z</time>
      </trkpt>
      <trkpt lat="45.19797" lon="5.72832">
        <ele>343.39999389648</ele>
        <time>2013-11-27T11:49:54.000Z</time>
      </trkpt>
      <trkpt lat="45.19778" lon="5.72822">
        <ele>340.60000610352</ele>
        <time>2013-11-27T11:50:00.000Z</time>
      </trkpt>
      <trkpt lat="45.19761" lon="5.7281">
        <ele>338.60000610352</ele>
        <time>2013-11-27T11:50:06.000Z</time>
      </trkpt>
      <trkpt lat="45.19759" lon="5.72808">
        <ele>338.20001220703</ele>
        <time>2013-11-27T11:50:07.000Z</time>
      </trkpt>
      <trkpt lat="45.1976" lon="5.72818">
        <ele>335</ele>
        <time>2013-11-27T11:50:11.000Z</time>
      </trkpt>
      <trkpt lat="45.19762" lon="5.72821">
        <ele>334.20001220703</ele>
        <time>2013-11-27T11:50:12.000Z</time>
      </trkpt>
      <trkpt lat="45.1978" lon="5.72844">
        <ele>332.20001220703</ele>
        <time>2013-11-27T11:50:19.000Z</time>
      </trkpt>
      <trkpt lat="45.19796" lon="5.72862">
        <ele>331.39999389648</ele>
        <time>2013-11-27T11:50:25.000Z</time>
      </trkpt>
      <trkpt lat="45.19809" lon="5.72877">
        <ele>329</ele>
        <time>2013-11-27T11:50:30.000Z</time>
      </trkpt>
      <trkpt lat="45.19814" lon="5.72886">
        <ele>326</ele>
        <time>2013-11-27T11:50:33.000Z</time>
      </trkpt>
      <trkpt lat="45.19801" lon="5.72879">
        <ele>325.79998779297</ele>
        <time>2013-11-27T11:50:37.000Z</time>
      </trkpt>
      <trkpt lat="45.19779" lon="5.72865">
        <ele>324.79998779297</ele>
        <time>2013-11-27T11:50:44.000Z</time>
      </trkpt>
      <trkpt lat="45.19763" lon="5.72857">
        <ele>322.20001220703</ele>
        <time>2013-11-27T11:50:49.000Z</time>
      </trkpt>
      <trkpt lat="45.19749" lon="5.72844">
        <ele>320.79998779297</ele>
        <time>2013-11-27T11:50:54.000Z</time>
      </trkpt>
      <trkpt lat="45.19745" lon="5.72846">
        <ele>318.79998779297</ele>
        <time>2013-11-27T11:50:58.000Z</time>
      </trkpt>
      <trkpt lat="45.19751" lon="5.72852">
        <ele>319.60000610352</ele>
        <time>2013-11-27T11:51:00.000Z</time>
      </trkpt>
      <trkpt lat="45.19765" lon="5.72873">
        <ele>318.39999389648</ele>
        <time>2013-11-27T11:51:06.000Z</time>
      </trkpt>
      <trkpt lat="45.19775" lon="5.72887">
        <ele>316.60000610352</ele>
        <time>2013-11-27T11:51:10.000Z</time>
      </trkpt>
      <trkpt lat="45.19783" lon="5.72901">
        <ele>313.60000610352</ele>
        <time>2013-11-27T11:51:14.000Z</time>
      </trkpt>
      <trkpt lat="45.19794" lon="5.72914">
        <ele>311</ele>
        <time>2013-11-27T11:51:18.000Z</time>
      </trkpt>
      <trkpt lat="45.19802" lon="5.72924">
        <ele>307.60000610352</ele>
        <time>2013-11-27T11:51:22.000Z</time>
      </trkpt>
      <trkpt lat="45.19789" lon="5.72918">
        <ele>308.39999389648</ele>
        <time>2013-11-27T11:51:27.000Z</time>
      </trkpt>
      <trkpt lat="45.19769" lon="5.72909">
        <ele>308.39999389648</ele>
        <time>2013-11-27T11:51:33.000Z</time>
      </trkpt>
      <trkpt lat="45.19766" lon="5.72908">
        <ele>308.20001220703</ele>
        <time>2013-11-27T11:51:34.000Z</time>
      </trkpt>
      <trkpt lat="45.19744" lon="5.72895">
        <ele>306</ele>
        <time>2013-11-27T11:51:41.000Z</time>
      </trkpt>
      <trkpt lat="45.19728" lon="5.72887">
        <ele>300.20001220703</ele>
        <time>2013-11-27T11:51:46.000Z</time>
      </trkpt>
      <trkpt lat="45.19711" lon="5.72877">
        <ele>295.39999389648</ele>
        <time>2013-11-27T11:51:51.000Z</time>
      </trkpt>
      <trkpt lat="45.19697" lon="5.72861">
        <ele>293.39999389648</ele>
        <time>2013-11-27T11:51:56.000Z</time>
      </trkpt>
      <trkpt lat="45.19693" lon="5.72858">
        <ele>292.60000610352</ele>
        <time>2013-11-27T11:51:58.000Z</time>
      </trkpt>
      <trkpt lat="45.19697" lon="5.72866">
        <ele>291.79998779297</ele>
        <time>2013-11-27T11:52:02.000Z</time>
      </trkpt>
      <trkpt lat="45.19711" lon="5.72888">
        <ele>292.39999389648</ele>
        <time>2013-11-27T11:52:08.000Z</time>
      </trkpt>
      <trkpt lat="45.19722" lon="5.72907">
        <ele>292.39999389648</ele>
        <time>2013-11-27T11:52:13.000Z</time>
      </trkpt>
      <trkpt lat="45.1973" lon="5.72923">
        <ele>290.79998779297</ele>
        <time>2013-11-27T11:52:17.000Z</time>
      </trkpt>
      <trkpt lat="45.19744" lon="5.72944">
        <ele>287</ele>
        <time>2013-11-27T11:52:23.000Z</time>
      </trkpt>
      <trkpt lat="45.19755" lon="5.72964">
        <ele>281</ele>
        <time>2013-11-27T11:52:28.000Z</time>
      </trkpt>
      <trkpt lat="45.19768" lon="5.7298">
        <ele>275.60000610352</ele>
        <time>2013-11-27T11:52:33.000Z</time>
      </trkpt>
      <trkpt lat="45.1978" lon="5.72996">
        <ele>270</ele>
        <time>2013-11-27T11:52:38.000Z</time>
      </trkpt>
      <trkpt lat="45.19794" lon="5.73014">
        <ele>266</ele>
        <time>2013-11-27T11:52:43.000Z</time>
      </trkpt>
      <trkpt lat="45.19806" lon="5.73021">
        <ele>266.20001220703</ele>
        <time>2013-11-27T11:52:47.000Z</time>
      </trkpt>
      <trkpt lat="45.19814" lon="5.73028">
        <ele>265.60000610352</ele>
        <time>2013-11-27T11:52:50.000Z</time>
      </trkpt>
      <trkpt lat="45.19804" lon="5.73028">
        <ele>263.39999389648</ele>
        <time>2013-11-27T11:52:54.000Z</time>
      </trkpt>
      <trkpt lat="45.19782" lon="5.73018">
        <ele>262.20001220703</ele>
        <time>2013-11-27T11:53:01.000Z</time>
      </trkpt>
      <trkpt lat="45.19772" lon="5.73014">
        <ele>261.79998779297</ele>
        <time>2013-11-27T11:53:04.000Z</time>
      </trkpt>
      <trkpt lat="45.19769" lon="5.73021">
        <ele>258.60000610352</ele>
        <time>2013-11-27T11:53:08.000Z</time>
      </trkpt>
      <trkpt lat="45.19779" lon="5.73029">
        <ele>258</ele>
        <time>2013-11-27T11:53:12.000Z</time>
      </trkpt>
      <trkpt lat="45.19783" lon="5.7303">
        <ele>258.20001220703</ele>
        <time>2013-11-27T11:53:13.000Z</time>
      </trkpt>
      <trkpt lat="45.19801" lon="5.73039">
        <ele>259.60000610352</ele>
        <time>2013-11-27T11:53:19.000Z</time>
      </trkpt>
      <trkpt lat="45.19807" lon="5.73043">
        <ele>259.60000610352</ele>
        <time>2013-11-27T11:53:21.000Z</time>
      </trkpt>
      <trkpt lat="45.19801" lon="5.73048">
        <ele>256.79998779297</ele>
        <time>2013-11-27T11:53:25.000Z</time>
      </trkpt>
      <trkpt lat="45.19798" lon="5.73046">
        <ele>256.39999389648</ele>
        <time>2013-11-27T11:53:26.000Z</time>
      </trkpt>
      <trkpt lat="45.19778" lon="5.7304">
        <ele>254</ele>
        <time>2013-11-27T11:53:32.000Z</time>
      </trkpt>
      <trkpt lat="45.1976" lon="5.73033">
        <ele>252.19999694824</ele>
        <time>2013-11-27T11:53:38.000Z</time>
      </trkpt>
      <trkpt lat="45.19757" lon="5.73035">
        <ele>250.80000305176</ele>
        <time>2013-11-27T11:53:40.000Z</time>
      </trkpt>
      <trkpt lat="45.19767" lon="5.73039">
        <ele>251.60000610352</ele>
        <time>2013-11-27T11:53:44.000Z</time>
      </trkpt>
      <trkpt lat="45.19784" lon="5.73051">
        <ele>251.39999389648</ele>
        <time>2013-11-27T11:53:49.000Z</time>
      </trkpt>
      <trkpt lat="45.19796" lon="5.73058">
        <ele>252.60000610352</ele>
        <time>2013-11-27T11:53:53.000Z</time>
      </trkpt>
      <trkpt lat="45.19802" lon="5.73062">
        <ele>253</ele>
        <time>2013-11-27T11:53:55.000Z</time>
      </trkpt>
      <trkpt lat="45.19796" lon="5.73067">
        <ele>249.39999389648</ele>
        <time>2013-11-27T11:53:59.000Z</time>
      </trkpt>
      <trkpt lat="45.19792" lon="5.73065">
        <ele>249</ele>
        <time>2013-11-27T11:54:00.000Z</time>
      </trkpt>
      <trkpt lat="45.19772" lon="5.73059">
        <ele>245.60000610352</ele>
        <time>2013-11-27T11:54:06.000Z</time>
      </trkpt>
      <trkpt lat="45.19757" lon="5.73056">
        <ele>242.39999389648</ele>
        <time>2013-11-27T11:54:11.000Z</time>
      </trkpt>
      <trkpt lat="45.19755" lon="5.73057">
        <ele>241.80000305176</ele>
        <time>2013-11-27T11:54:12.000Z</time>
      </trkpt>
      <trkpt lat="45.19761" lon="5.73066">
        <ele>239.80000305176</ele>
        <time>2013-11-27T11:54:17.000Z</time>
      </trkpt>
      <trkpt lat="45.19778" lon="5.73079">
        <ele>240.19999694824</ele>
        <time>2013-11-27T11:54:23.000Z</time>
      </trkpt>
      <trkpt lat="45.19794" lon="5.7309">
        <ele>242.39999389648</ele>
        <time>2013-11-27T11:54:28.000Z</time>
      </trkpt>
      <trkpt lat="45.19806" lon="5.73099">
        <ele>243.80000305176</ele>
        <time>2013-11-27T11:54:32.000Z</time>
      </trkpt>
      <trkpt lat="45.19801" lon="5.73102">
        <ele>241.80000305176</ele>
        <time>2013-11-27T11:54:35.000Z</time>
      </trkpt>
      <trkpt lat="45.19795" lon="5.73099">
        <ele>241</ele>
        <time>2013-11-27T11:54:37.000Z</time>
      </trkpt>
      <trkpt lat="45.19774" lon="5.73094">
        <ele>235.80000305176</ele>
        <time>2013-11-27T11:54:44.000Z</time>
      </trkpt>
      <trkpt lat="45.19763" lon="5.73096">
        <ele>232.39999389648</ele>
        <time>2013-11-27T11:54:48.000Z</time>
      </trkpt>
      <trkpt lat="45.19766" lon="5.73104">
        <ele>232</ele>
        <time>2013-11-27T11:54:52.000Z</time>
      </trkpt>
      <trkpt lat="45.19773" lon="5.73107">
        <ele>233.39999389648</ele>
        <time>2013-11-27T11:54:56.000Z</time>
      </trkpt>
      <trkpt lat="45.19787" lon="5.73125">
        <ele>233.80000305176</ele>
        <time>2013-11-27T11:55:01.000Z</time>
      </trkpt>
      <trkpt lat="45.19804" lon="5.7313">
        <ele>236.39999389648</ele>
        <time>2013-11-27T11:55:05.000Z</time>
      </trkpt>
      <trkpt lat="45.19799" lon="5.73137">
        <ele>233.80000305176</ele>
        <time>2013-11-27T11:55:08.000Z</time>
      </trkpt>
      <trkpt lat="45.19783" lon="5.73151">
        <ele>228.19999694824</ele>
        <time>2013-11-27T11:55:14.000Z</time>
      </trkpt>
      <trkpt lat="45.19776" lon="5.73173">
        <ele>223.39999389648</ele>
        <time>2013-11-27T11:55:20.000Z</time>
      </trkpt>
      <trkpt lat="45.19774" lon="5.73178">
        <ele>222.60000610352</ele>
        <time>2013-11-27T11:55:21.000Z</time>
      </trkpt>
      <trkpt lat="45.19774" lon="5.73178">
        <ele>222.60000610352</ele>
        <time>2013-11-27T11:55:21.000Z</time>
      </trkpt>
      <trkpt lat="45.19773" lon="5.73202">
        <ele>219.39999389648</ele>
        <time>2013-11-27T11:55:26.000Z</time>
      </trkpt>
      <trkpt lat="45.19774" lon="5.73224">
        <ele>216.60000610352</ele>
        <time>2013-11-27T11:55:31.000Z</time>
      </trkpt>
      <trkpt lat="45.19776" lon="5.73237">
        <ele>215</ele>
        <time>2013-11-27T11:55:34.000Z</time>
      </trkpt>
      <trkpt lat="45.1976" lon="5.73249">
        <ele>212.60000610352</ele>
        <time>2013-11-27T11:55:39.000Z</time>
      </trkpt>
      <trkpt lat="45.19752" lon="5.73267">
        <ele>211.19999694824</ele>
        <time>2013-11-27T11:55:44.000Z</time>
      </trkpt>
      <trkpt lat="45.19743" lon="5.73295">
        <ele>209.60000610352</ele>
        <time>2013-11-27T11:55:51.000Z</time>
      </trkpt>
      <trkpt lat="45.19737" lon="5.73315">
        <ele>208.80000305176</ele>
        <time>2013-11-27T11:55:56.000Z</time>
      </trkpt>
      <trkpt lat="45.1973" lon="5.7334">
        <ele>208.60000610352</ele>
        <time>2013-11-27T11:56:02.000Z</time>
      </trkpt>
      <trkpt lat="45.19722" lon="5.73365">
        <ele>211</ele>
        <time>2013-11-27T11:56:08.000Z</time>
      </trkpt>
      <trkpt lat="45.19711" lon="5.73388">
        <ele>213</ele>
        <time>2013-11-27T11:56:14.000Z</time>
      </trkpt>
      <trkpt lat="45.19699" lon="5.73395">
        <ele>213.39999389648</ele>
        <time>2013-11-27T11:56:19.000Z</time>
      </trkpt>
      <trkpt lat="45.19691" lon="5.73403">
        <ele>214</ele>
        <time>2013-11-27T11:56:23.000Z</time>
      </trkpt>
      <trkpt lat="45.19678" lon="5.73415">
        <ele>215</ele>
        <time>2013-11-27T11:56:28.000Z</time>
      </trkpt>
      <trkpt lat="45.19668" lon="5.73426">
        <ele>215</ele>
        <time>2013-11-27T11:56:32.000Z</time>
      </trkpt>
      <trkpt lat="45.19655" lon="5.73439">
        <ele>215.19999694824</ele>
        <time>2013-11-27T11:56:37.000Z</time>
      </trkpt>
      <trkpt lat="45.19643" lon="5.73446">
        <ele>215.60000610352</ele>
        <time>2013-11-27T11:56:41.000Z</time>
      </trkpt>
      <trkpt lat="45.19626" lon="5.73461">
        <ele>216.19999694824</ele>
        <time>2013-11-27T11:56:47.000Z</time>
      </trkpt>
      <trkpt lat="45.19611" lon="5.73469">
        <ele>217</ele>
        <time>2013-11-27T11:56:52.000Z</time>
      </trkpt>
      <trkpt lat="45.19595" lon="5.73475">
        <ele>217.60000610352</ele>
        <time>2013-11-27T11:56:57.000Z</time>
      </trkpt>
      <trkpt lat="45.1958" lon="5.73475">
        <ele>218.19999694824</ele>
        <time>2013-11-27T11:57:02.000Z</time>
      </trkpt>
      <trkpt lat="45.19576" lon="5.73471">
        <ele>218</ele>
        <time>2013-11-27T11:57:04.000Z</time>
      </trkpt>
      <trkpt lat="45.1956" lon="5.73476">
        <ele>218.60000610352</ele>
        <time>2013-11-27T11:57:10.000Z</time>
      </trkpt>
      <trkpt lat="45.19545" lon="5.73476">
        <ele>218.80000305176</ele>
        <time>2013-11-27T11:57:15.000Z</time>
      </trkpt>
      <trkpt lat="45.19533" lon="5.73482">
        <ele>219.39999389648</ele>
        <time>2013-11-27T11:57:19.000Z</time>
      </trkpt>
      <trkpt lat="45.19519" lon="5.73489">
        <ele>220</ele>
        <time>2013-11-27T11:57:24.000Z</time>
      </trkpt>
      <trkpt lat="45.19502" lon="5.73495">
        <ele>220.60000610352</ele>
        <time>2013-11-27T11:57:30.000Z</time>
      </trkpt>
      <trkpt lat="45.19489" lon="5.735">
        <ele>221.60000610352</ele>
        <time>2013-11-27T11:57:35.000Z</time>
      </trkpt>
      <trkpt lat="45.19477" lon="5.73508">
        <ele>222</ele>
        <time>2013-11-27T11:57:40.000Z</time>
      </trkpt>
      <trkpt lat="45.19461" lon="5.7352">
        <ele>222.60000610352</ele>
        <time>2013-11-27T11:57:46.000Z</time>
      </trkpt>
      <trkpt lat="45.19446" lon="5.73533">
        <ele>223</ele>
        <time>2013-11-27T11:57:52.000Z</time>
      </trkpt>
      <trkpt lat="45.19431" lon="5.73546">
        <ele>223.39999389648</ele>
        <time>2013-11-27T11:57:58.000Z</time>
      </trkpt>
      <trkpt lat="45.19411" lon="5.73559">
        <ele>223.39999389648</ele>
        <time>2013-11-27T11:58:04.000Z</time>
      </trkpt>
      <trkpt lat="45.19393" lon="5.73575">
        <ele>221.80000305176</ele>
        <time>2013-11-27T11:58:10.000Z</time>
      </trkpt>
      <trkpt lat="45.1938" lon="5.7358">
        <ele>221</ele>
        <time>2013-11-27T11:58:14.000Z</time>
      </trkpt>
      <trkpt lat="45.19369" lon="5.73582">
        <ele>220.19999694824</ele>
        <time>2013-11-27T11:58:17.000Z</time>
      </trkpt>
      <trkpt lat="45.1935" lon="5.73559">
        <ele>220.19999694824</ele>
        <time>2013-11-27T11:58:24.000Z</time>
      </trkpt>
      <trkpt lat="45.19337" lon="5.73545">
        <ele>220.39999389648</ele>
        <time>2013-11-27T11:58:29.000Z</time>
      </trkpt>
      <trkpt lat="45.19323" lon="5.73534">
        <ele>220.19999694824</ele>
        <time>2013-11-27T11:58:34.000Z</time>
      </trkpt>
      <trkpt lat="45.19306" lon="5.73523">
        <ele>219.60000610352</ele>
        <time>2013-11-27T11:58:40.000Z</time>
      </trkpt>
      <trkpt lat="45.19292" lon="5.73513">
        <ele>218.80000305176</ele>
        <time>2013-11-27T11:58:45.000Z</time>
      </trkpt>
      <trkpt lat="45.19273" lon="5.73506">
        <ele>217.19999694824</ele>
        <time>2013-11-27T11:58:51.000Z</time>
      </trkpt>
      <trkpt lat="45.19254" lon="5.73501">
        <ele>215.39999389648</ele>
        <time>2013-11-27T11:58:57.000Z</time>
      </trkpt>
      <trkpt lat="45.19235" lon="5.73498">
        <ele>214.60000610352</ele>
        <time>2013-11-27T11:59:03.000Z</time>
      </trkpt>
      <trkpt lat="45.19222" lon="5.73494">
        <ele>214.39999389648</ele>
        <time>2013-11-27T11:59:07.000Z</time>
      </trkpt>
      <trkpt lat="45.19207" lon="5.73492">
        <ele>214</ele>
        <time>2013-11-27T11:59:12.000Z</time>
      </trkpt>
      <trkpt lat="45.19193" lon="5.73497">
        <ele>213.60000610352</ele>
        <time>2013-11-27T11:59:17.000Z</time>
      </trkpt>
      <trkpt lat="45.19179" lon="5.7351">
        <ele>213.60000610352</ele>
        <time>2013-11-27T11:59:22.000Z</time>
      </trkpt>
      <trkpt lat="45.19168" lon="5.73526">
        <ele>214</ele>
        <time>2013-11-27T11:59:27.000Z</time>
      </trkpt>
      <trkpt lat="45.19156" lon="5.73542">
        <ele>214.39999389648</ele>
        <time>2013-11-27T11:59:33.000Z</time>
      </trkpt>
      <trkpt lat="45.19135" lon="5.73549">
        <ele>214.39999389648</ele>
        <time>2013-11-27T11:59:39.000Z</time>
      </trkpt>
      <trkpt lat="45.19119" lon="5.73562">
        <ele>214.60000610352</ele>
        <time>2013-11-27T11:59:45.000Z</time>
      </trkpt>
      <trkpt lat="45.19105" lon="5.73578">
        <ele>214.39999389648</ele>
        <time>2013-11-27T11:59:51.000Z</time>
      </trkpt>
      <trkpt lat="45.19091" lon="5.73586">
        <ele>214.19999694824</ele>
        <time>2013-11-27T11:59:56.000Z</time>
      </trkpt>
      <trkpt lat="45.19076" lon="5.73592">
        <ele>214.39999389648</ele>
        <time>2013-11-27T12:00:01.000Z</time>
      </trkpt>
      <trkpt lat="45.1906" lon="5.73602">
        <ele>214.60000610352</ele>
        <time>2013-11-27T12:00:06.000Z</time>
      </trkpt>
      <trkpt lat="45.19034" lon="5.73609">
        <ele>215</ele>
        <time>2013-11-27T12:00:13.000Z</time>
      </trkpt>
      <trkpt lat="45.19021" lon="5.73616">
        <ele>215.19999694824</ele>
        <time>2013-11-27T12:00:18.000Z</time>
      </trkpt>
      <trkpt lat="45.19008" lon="5.73615">
        <ele>215.19999694824</ele>
        <time>2013-11-27T12:00:23.000Z</time>
      </trkpt>
      <trkpt lat="45.18994" lon="5.73606">
        <ele>215</ele>
        <time>2013-11-27T12:00:28.000Z</time>
      </trkpt>
      <trkpt lat="45.18981" lon="5.73593">
        <ele>215</ele>
        <time>2013-11-27T12:00:33.000Z</time>
      </trkpt>
      <trkpt lat="45.18971" lon="5.73584">
        <ele>215</ele>
        <time>2013-11-27T12:00:37.000Z</time>
      </trkpt>
      <trkpt lat="45.18959" lon="5.73575">
        <ele>215.60000610352</ele>
        <time>2013-11-27T12:00:42.000Z</time>
      </trkpt>
      <trkpt lat="45.18941" lon="5.73556">
        <ele>216.60000610352</ele>
        <time>2013-11-27T12:00:49.000Z</time>
      </trkpt>
      <trkpt lat="45.18931" lon="5.7355">
        <ele>217</ele>
        <time>2013-11-27T12:00:53.000Z</time>
      </trkpt>
      <trkpt lat="45.18919" lon="5.7354">
        <ele>217.39999389648</ele>
        <time>2013-11-27T12:00:58.000Z</time>
      </trkpt>
      <trkpt lat="45.18903" lon="5.73518">
        <ele>217.80000305176</ele>
        <time>2013-11-27T12:01:04.000Z</time>
      </trkpt>
      <trkpt lat="45.18888" lon="5.73496">
        <ele>217.60000610352</ele>
        <time>2013-11-27T12:01:10.000Z</time>
      </trkpt>
      <trkpt lat="45.1888" lon="5.73477">
        <ele>217.19999694824</ele>
        <time>2013-11-27T12:01:14.000Z</time>
      </trkpt>
      <trkpt lat="45.18871" lon="5.73461">
        <ele>217</ele>
        <time>2013-11-27T12:01:19.000Z</time>
      </trkpt>
      <trkpt lat="45.18854" lon="5.73447">
        <ele>216.60000610352</ele>
        <time>2013-11-27T12:01:25.000Z</time>
      </trkpt>
      <trkpt lat="45.18841" lon="5.73433">
        <ele>216.19999694824</ele>
        <time>2013-11-27T12:01:30.000Z</time>
      </trkpt>
      <trkpt lat="45.18829" lon="5.7342">
        <ele>216</ele>
        <time>2013-11-27T12:01:35.000Z</time>
      </trkpt>
      <trkpt lat="45.1882" lon="5.73409">
        <ele>215.80000305176</ele>
        <time>2013-11-27T12:01:39.000Z</time>
      </trkpt>
      <trkpt lat="45.18808" lon="5.73395">
        <ele>215.60000610352</ele>
        <time>2013-11-27T12:01:44.000Z</time>
      </trkpt>
      <trkpt lat="45.18794" lon="5.73379">
        <ele>215.80000305176</ele>
        <time>2013-11-27T12:01:49.000Z</time>
      </trkpt>
      <trkpt lat="45.18777" lon="5.73356">
        <ele>216</ele>
        <time>2013-11-27T12:01:56.000Z</time>
      </trkpt>
      <trkpt lat="45.18759" lon="5.73336">
        <ele>216.80000305176</ele>
        <time>2013-11-27T12:02:03.000Z</time>
      </trkpt>
      <trkpt lat="45.18746" lon="5.73322">
        <ele>217.19999694824</ele>
        <time>2013-11-27T12:02:08.000Z</time>
      </trkpt>
      <trkpt lat="45.18731" lon="5.73305">
        <ele>217.60000610352</ele>
        <time>2013-11-27T12:02:14.000Z</time>
      </trkpt>
      <trkpt lat="45.18717" lon="5.73287">
        <ele>217.80000305176</ele>
        <time>2013-11-27T12:02:20.000Z</time>
      </trkpt>
    </trkseg>
  </trk>
</gpx>